<?xml version="1.0" encoding="utf-8"?>
<gpx xmlns:xsi="http://www.w3.org/2001/XMLSchema-instance" xmlns:xsd="http://www.w3.org/2001/XMLSchema" version="1.1" creator="Shapelink.com" xmlns="http://www.topografix.com/GPX/1/1" xmlns:gpxtpx="http://www.garmin.com/xmlschemas/TrackPointExtension/v1">
  <metadata>
    <name>Sykling 43.95 km, 2012-04-12</name>
    <desc></desc>
    <author><name>Mikael Blom</name></author> 
    <time>2012-04-12T17:19:16Z</time>
  </metadata>
  <trk>
    <name>Sykling 43.95 km, 2012-04-12</name>
    <trkseg>
      <trkpt lat="59.9788195" lon="17.7392977">
        <ele>40.5128</ele>
        <time>2012-04-12T17:19:16Z</time>
      </trkpt>
      <trkpt lat="59.9786877" lon="17.7392724">
        <ele>40.5128</ele>
        <time>2012-04-12T17:19:20Z</time>
      </trkpt>
      <trkpt lat="59.97843" lon="17.7392138">
        <ele>40.9934</ele>
        <time>2012-04-12T17:19:26Z</time>
      </trkpt>
      <trkpt lat="59.9781144" lon="17.7390998">
        <ele>40.0321</ele>
        <time>2012-04-12T17:19:31Z</time>
      </trkpt>
      <trkpt lat="59.9780706" lon="17.7390956">
        <ele>40.0321</ele>
        <time>2012-04-12T17:19:32Z</time>
      </trkpt>
      <trkpt lat="59.977723" lon="17.7389643">
        <ele>38.1094</ele>
        <time>2012-04-12T17:19:38Z</time>
      </trkpt>
      <trkpt lat="59.9775798" lon="17.7389565">
        <ele>37.6287</ele>
        <time>2012-04-12T17:19:40Z</time>
      </trkpt>
      <trkpt lat="59.9772184" lon="17.7391176">
        <ele>36.1868</ele>
        <time>2012-04-12T17:19:44Z</time>
      </trkpt>
      <trkpt lat="59.9770271" lon="17.7392392">
        <ele>34.7449</ele>
        <time>2012-04-12T17:19:46Z</time>
      </trkpt>
      <trkpt lat="59.976629" lon="17.7393966">
        <ele>32.8223</ele>
        <time>2012-04-12T17:19:50Z</time>
      </trkpt>
      <trkpt lat="59.9763573" lon="17.7396717">
        <ele>31.8607</ele>
        <time>2012-04-12T17:19:53Z</time>
      </trkpt>
      <trkpt lat="59.9761198" lon="17.7396756">
        <ele>30.4188</ele>
        <time>2012-04-12T17:19:56Z</time>
      </trkpt>
      <trkpt lat="59.9759977" lon="17.7393745">
        <ele>28.0155</ele>
        <time>2012-04-12T17:19:58Z</time>
      </trkpt>
      <trkpt lat="59.9755855" lon="17.7386099">
        <ele>25.6123</ele>
        <time>2012-04-12T17:20:04Z</time>
      </trkpt>
      <trkpt lat="59.9752106" lon="17.7379708">
        <ele>25.1317</ele>
        <time>2012-04-12T17:20:10Z</time>
      </trkpt>
      <trkpt lat="59.9747801" lon="17.7371117">
        <ele>25.1317</ele>
        <time>2012-04-12T17:20:18Z</time>
      </trkpt>
      <trkpt lat="59.9745737" lon="17.7365041">
        <ele>25.1317</ele>
        <time>2012-04-12T17:20:23Z</time>
      </trkpt>
      <trkpt lat="59.974416" lon="17.7358261">
        <ele>25.1317</ele>
        <time>2012-04-12T17:20:29Z</time>
      </trkpt>
      <trkpt lat="59.9743279" lon="17.7351242">
        <ele>25.1317</ele>
        <time>2012-04-12T17:20:35Z</time>
      </trkpt>
      <trkpt lat="59.9743038" lon="17.7342188">
        <ele>25.1317</ele>
        <time>2012-04-12T17:20:42Z</time>
      </trkpt>
      <trkpt lat="59.9743465" lon="17.7333779">
        <ele>25.1317</ele>
        <time>2012-04-12T17:20:49Z</time>
      </trkpt>
      <trkpt lat="59.9743601" lon="17.7323311">
        <ele>25.6123</ele>
        <time>2012-04-12T17:20:58Z</time>
      </trkpt>
      <trkpt lat="59.9743537" lon="17.7312654">
        <ele>25.1317</ele>
        <time>2012-04-12T17:21:07Z</time>
      </trkpt>
      <trkpt lat="59.9744252" lon="17.7302295">
        <ele>25.6123</ele>
        <time>2012-04-12T17:21:16Z</time>
      </trkpt>
      <trkpt lat="59.974479" lon="17.7292148">
        <ele>25.6123</ele>
        <time>2012-04-12T17:21:25Z</time>
      </trkpt>
      <trkpt lat="59.9744502" lon="17.7281197">
        <ele>25.6123</ele>
        <time>2012-04-12T17:21:34Z</time>
      </trkpt>
      <trkpt lat="59.9744356" lon="17.7270961">
        <ele>27.0543</ele>
        <time>2012-04-12T17:21:43Z</time>
      </trkpt>
      <trkpt lat="59.974404" lon="17.7260678">
        <ele>27.5349</ele>
        <time>2012-04-12T17:21:53Z</time>
      </trkpt>
      <trkpt lat="59.9743335" lon="17.7252706">
        <ele>27.5349</ele>
        <time>2012-04-12T17:22:00Z</time>
      </trkpt>
      <trkpt lat="59.9741818" lon="17.7242088">
        <ele>27.5349</ele>
        <time>2012-04-12T17:22:09Z</time>
      </trkpt>
      <trkpt lat="59.9739496" lon="17.722841">
        <ele>29.4575</ele>
        <time>2012-04-12T17:22:20Z</time>
      </trkpt>
      <trkpt lat="59.9737143" lon="17.7220543">
        <ele>29.9381</ele>
        <time>2012-04-12T17:22:27Z</time>
      </trkpt>
      <trkpt lat="59.9734249" lon="17.7213559">
        <ele>30.4188</ele>
        <time>2012-04-12T17:22:34Z</time>
      </trkpt>
      <trkpt lat="59.9730788" lon="17.7207578">
        <ele>30.8995</ele>
        <time>2012-04-12T17:22:41Z</time>
      </trkpt>
      <trkpt lat="59.9726858" lon="17.720288">
        <ele>31.3801</ele>
        <time>2012-04-12T17:22:48Z</time>
      </trkpt>
      <trkpt lat="59.9721339" lon="17.7197892">
        <ele>31.3801</ele>
        <time>2012-04-12T17:22:57Z</time>
      </trkpt>
      <trkpt lat="59.9715322" lon="17.7192488">
        <ele>32.3416</ele>
        <time>2012-04-12T17:23:07Z</time>
      </trkpt>
      <trkpt lat="59.9708732" lon="17.7186572">
        <ele>32.8223</ele>
        <time>2012-04-12T17:23:18Z</time>
      </trkpt>
      <trkpt lat="59.9703405" lon="17.7181704">
        <ele>32.8223</ele>
        <time>2012-04-12T17:23:27Z</time>
      </trkpt>
      <trkpt lat="59.9698669" lon="17.7177541">
        <ele>33.3029</ele>
        <time>2012-04-12T17:23:35Z</time>
      </trkpt>
      <trkpt lat="59.9693651" lon="17.7174107">
        <ele>33.7834</ele>
        <time>2012-04-12T17:23:44Z</time>
      </trkpt>
      <trkpt lat="59.9688649" lon="17.7171995">
        <ele>34.2642</ele>
        <time>2012-04-12T17:23:53Z</time>
      </trkpt>
      <trkpt lat="59.9683754" lon="17.7169659">
        <ele>32.8223</ele>
        <time>2012-04-12T17:24:01Z</time>
      </trkpt>
      <trkpt lat="59.9680408" lon="17.7165987">
        <ele>30.4188</ele>
        <time>2012-04-12T17:24:06Z</time>
      </trkpt>
      <trkpt lat="59.9677275" lon="17.7159732">
        <ele>27.5349</ele>
        <time>2012-04-12T17:24:11Z</time>
      </trkpt>
      <trkpt lat="59.9675279" lon="17.715076">
        <ele>24.651</ele>
        <time>2012-04-12T17:24:16Z</time>
      </trkpt>
      <trkpt lat="59.967415" lon="17.7142449">
        <ele>25.6123</ele>
        <time>2012-04-12T17:24:21Z</time>
      </trkpt>
      <trkpt lat="59.9673035" lon="17.7134725">
        <ele>26.5736</ele>
        <time>2012-04-12T17:24:27Z</time>
      </trkpt>
      <trkpt lat="59.9671161" lon="17.712646">
        <ele>27.5349</ele>
        <time>2012-04-12T17:24:34Z</time>
      </trkpt>
      <trkpt lat="59.9668934" lon="17.7120153">
        <ele>28.4962</ele>
        <time>2012-04-12T17:24:40Z</time>
      </trkpt>
      <trkpt lat="59.9666373" lon="17.7112688">
        <ele>28.4962</ele>
        <time>2012-04-12T17:24:47Z</time>
      </trkpt>
      <trkpt lat="59.9663034" lon="17.7100969">
        <ele>28.0155</ele>
        <time>2012-04-12T17:24:57Z</time>
      </trkpt>
      <trkpt lat="59.9658597" lon="17.7086363">
        <ele>28.0155</ele>
        <time>2012-04-12T17:25:09Z</time>
      </trkpt>
      <trkpt lat="59.9657257" lon="17.7083282">
        <ele>28.0155</ele>
        <time>2012-04-12T17:25:12Z</time>
      </trkpt>
      <trkpt lat="59.9653627" lon="17.7078912">
        <ele>28.4962</ele>
        <time>2012-04-12T17:25:18Z</time>
      </trkpt>
      <trkpt lat="59.9647887" lon="17.7074449">
        <ele>28.4962</ele>
        <time>2012-04-12T17:25:27Z</time>
      </trkpt>
      <trkpt lat="59.9642795" lon="17.7071855">
        <ele>28.0155</ele>
        <time>2012-04-12T17:25:35Z</time>
      </trkpt>
      <trkpt lat="59.9637546" lon="17.7070906">
        <ele>28.4962</ele>
        <time>2012-04-12T17:25:43Z</time>
      </trkpt>
      <trkpt lat="59.9632883" lon="17.7070563">
        <ele>28.4962</ele>
        <time>2012-04-12T17:25:50Z</time>
      </trkpt>
      <trkpt lat="59.9627565" lon="17.707046">
        <ele>28.9769</ele>
        <time>2012-04-12T17:25:58Z</time>
      </trkpt>
      <trkpt lat="59.9623676" lon="17.7069326">
        <ele>29.9381</ele>
        <time>2012-04-12T17:26:04Z</time>
      </trkpt>
      <trkpt lat="59.9618903" lon="17.7066695">
        <ele>30.4188</ele>
        <time>2012-04-12T17:26:12Z</time>
      </trkpt>
      <trkpt lat="59.9615398" lon="17.7063393">
        <ele>30.4188</ele>
        <time>2012-04-12T17:26:18Z</time>
      </trkpt>
      <trkpt lat="59.9612346" lon="17.7057794">
        <ele>29.9381</ele>
        <time>2012-04-12T17:26:24Z</time>
      </trkpt>
      <trkpt lat="59.9608252" lon="17.7050925">
        <ele>28.4962</ele>
        <time>2012-04-12T17:26:32Z</time>
      </trkpt>
      <trkpt lat="59.9603146" lon="17.7044538">
        <ele>26.5736</ele>
        <time>2012-04-12T17:26:41Z</time>
      </trkpt>
      <trkpt lat="59.9601939" lon="17.7043237">
        <ele>26.5736</ele>
        <time>2012-04-12T17:26:43Z</time>
      </trkpt>
      <trkpt lat="59.9600002" lon="17.7039914">
        <ele>26.5736</ele>
        <time>2012-04-12T17:26:47Z</time>
      </trkpt>
      <trkpt lat="59.9598122" lon="17.7033666">
        <ele>27.0543</ele>
        <time>2012-04-12T17:26:53Z</time>
      </trkpt>
      <trkpt lat="59.9596006" lon="17.7026251">
        <ele>27.5349</ele>
        <time>2012-04-12T17:27:01Z</time>
      </trkpt>
      <trkpt lat="59.9593625" lon="17.7017904">
        <ele>27.5349</ele>
        <time>2012-04-12T17:27:09Z</time>
      </trkpt>
      <trkpt lat="59.9592064" lon="17.7009489">
        <ele>27.5349</ele>
        <time>2012-04-12T17:27:16Z</time>
      </trkpt>
      <trkpt lat="59.9591135" lon="17.6999881">
        <ele>28.0155</ele>
        <time>2012-04-12T17:27:23Z</time>
      </trkpt>
      <trkpt lat="59.9590443" lon="17.6987859">
        <ele>28.9769</ele>
        <time>2012-04-12T17:27:32Z</time>
      </trkpt>
      <trkpt lat="59.9589999" lon="17.6977541">
        <ele>28.4962</ele>
        <time>2012-04-12T17:27:40Z</time>
      </trkpt>
      <trkpt lat="59.9588585" lon="17.6969127">
        <ele>26.5736</ele>
        <time>2012-04-12T17:27:46Z</time>
      </trkpt>
      <trkpt lat="59.9586255" lon="17.6961351">
        <ele>25.6123</ele>
        <time>2012-04-12T17:27:52Z</time>
      </trkpt>
      <trkpt lat="59.9582006" lon="17.6950618">
        <ele>26.0929</ele>
        <time>2012-04-12T17:28:01Z</time>
      </trkpt>
      <trkpt lat="59.9577325" lon="17.6937331">
        <ele>26.0929</ele>
        <time>2012-04-12T17:28:12Z</time>
      </trkpt>
      <trkpt lat="59.9571899" lon="17.6921709">
        <ele>26.5736</ele>
        <time>2012-04-12T17:28:25Z</time>
      </trkpt>
      <trkpt lat="59.9568265" lon="17.6911256">
        <ele>28.0155</ele>
        <time>2012-04-12T17:28:34Z</time>
      </trkpt>
      <trkpt lat="59.9566249" lon="17.6905675">
        <ele>28.9769</ele>
        <time>2012-04-12T17:28:40Z</time>
      </trkpt>
      <trkpt lat="59.9564128" lon="17.6900511">
        <ele>28.9769</ele>
        <time>2012-04-12T17:28:46Z</time>
      </trkpt>
      <trkpt lat="59.9562239" lon="17.6894606">
        <ele>28.4962</ele>
        <time>2012-04-12T17:28:52Z</time>
      </trkpt>
      <trkpt lat="59.9561871" lon="17.6893585">
        <ele>28.0155</ele>
        <time>2012-04-12T17:28:53Z</time>
      </trkpt>
      <trkpt lat="59.9560445" lon="17.6886137">
        <ele>28.0155</ele>
        <time>2012-04-12T17:28:59Z</time>
      </trkpt>
      <trkpt lat="59.9559169" lon="17.6878637">
        <ele>27.5349</ele>
        <time>2012-04-12T17:29:05Z</time>
      </trkpt>
      <trkpt lat="59.9557551" lon="17.6867062">
        <ele>27.5349</ele>
        <time>2012-04-12T17:29:14Z</time>
      </trkpt>
      <trkpt lat="59.9556076" lon="17.6856373">
        <ele>27.5349</ele>
        <time>2012-04-12T17:29:22Z</time>
      </trkpt>
      <trkpt lat="59.9554309" lon="17.6844385">
        <ele>27.0543</ele>
        <time>2012-04-12T17:29:31Z</time>
      </trkpt>
      <trkpt lat="59.9551988" lon="17.6833077">
        <ele>26.5736</ele>
        <time>2012-04-12T17:29:40Z</time>
      </trkpt>
      <trkpt lat="59.9549413" lon="17.6824003">
        <ele>25.6123</ele>
        <time>2012-04-12T17:29:48Z</time>
      </trkpt>
      <trkpt lat="59.9548293" lon="17.6820742">
        <ele>25.1317</ele>
        <time>2012-04-12T17:29:51Z</time>
      </trkpt>
      <trkpt lat="59.9546254" lon="17.6817344">
        <ele>25.6123</ele>
        <time>2012-04-12T17:29:55Z</time>
      </trkpt>
      <trkpt lat="59.954586" lon="17.6816315">
        <ele>25.6123</ele>
        <time>2012-04-12T17:29:56Z</time>
      </trkpt>
      <trkpt lat="59.9542659" lon="17.6806234">
        <ele>25.6123</ele>
        <time>2012-04-12T17:30:05Z</time>
      </trkpt>
      <trkpt lat="59.9539745" lon="17.6797894">
        <ele>25.6123</ele>
        <time>2012-04-12T17:30:13Z</time>
      </trkpt>
      <trkpt lat="59.9537384" lon="17.6790709">
        <ele>26.0929</ele>
        <time>2012-04-12T17:30:20Z</time>
      </trkpt>
      <trkpt lat="59.9534344" lon="17.6781762">
        <ele>25.6123</ele>
        <time>2012-04-12T17:30:29Z</time>
      </trkpt>
      <trkpt lat="59.9532011" lon="17.6775126">
        <ele>25.1317</ele>
        <time>2012-04-12T17:30:36Z</time>
      </trkpt>
      <trkpt lat="59.9528822" lon="17.6766765">
        <ele>25.1317</ele>
        <time>2012-04-12T17:30:45Z</time>
      </trkpt>
      <trkpt lat="59.9526762" lon="17.6761263">
        <ele>26.0929</ele>
        <time>2012-04-12T17:30:51Z</time>
      </trkpt>
      <trkpt lat="59.9524251" lon="17.6754747">
        <ele>28.0155</ele>
        <time>2012-04-12T17:30:59Z</time>
      </trkpt>
      <trkpt lat="59.9522599" lon="17.6749214">
        <ele>28.9769</ele>
        <time>2012-04-12T17:31:06Z</time>
      </trkpt>
      <trkpt lat="59.952182" lon="17.6744611">
        <ele>27.0543</ele>
        <time>2012-04-12T17:31:10Z</time>
      </trkpt>
      <trkpt lat="59.9520089" lon="17.6735516">
        <ele>26.0929</ele>
        <time>2012-04-12T17:31:17Z</time>
      </trkpt>
      <trkpt lat="59.9518359" lon="17.6722734">
        <ele>24.651</ele>
        <time>2012-04-12T17:31:26Z</time>
      </trkpt>
      <trkpt lat="59.9518095" lon="17.6719747">
        <ele>24.1703</ele>
        <time>2012-04-12T17:31:28Z</time>
      </trkpt>
      <trkpt lat="59.9517992" lon="17.6715348">
        <ele>23.6896</ele>
        <time>2012-04-12T17:31:31Z</time>
      </trkpt>
      <trkpt lat="59.9517229" lon="17.6709211">
        <ele>21.767</ele>
        <time>2012-04-12T17:31:35Z</time>
      </trkpt>
      <trkpt lat="59.9517249" lon="17.6705921">
        <ele>21.2864</ele>
        <time>2012-04-12T17:31:37Z</time>
      </trkpt>
      <trkpt lat="59.9517978" lon="17.6693534">
        <ele>19.3638</ele>
        <time>2012-04-12T17:31:45Z</time>
      </trkpt>
      <trkpt lat="59.951812" lon="17.6689302">
        <ele>18.8831</ele>
        <time>2012-04-12T17:31:48Z</time>
      </trkpt>
      <trkpt lat="59.951695" lon="17.6682459">
        <ele>17.9218</ele>
        <time>2012-04-12T17:31:53Z</time>
      </trkpt>
      <trkpt lat="59.9515235" lon="17.6680108">
        <ele>17.9218</ele>
        <time>2012-04-12T17:31:56Z</time>
      </trkpt>
      <trkpt lat="59.9513847" lon="17.6680223">
        <ele>17.9218</ele>
        <time>2012-04-12T17:31:58Z</time>
      </trkpt>
      <trkpt lat="59.9508691" lon="17.6681896">
        <ele>18.8831</ele>
        <time>2012-04-12T17:32:06Z</time>
      </trkpt>
      <trkpt lat="59.9503854" lon="17.6682516">
        <ele>19.3638</ele>
        <time>2012-04-12T17:32:14Z</time>
      </trkpt>
      <trkpt lat="59.9498357" lon="17.6681238">
        <ele>19.8444</ele>
        <time>2012-04-12T17:32:23Z</time>
      </trkpt>
      <trkpt lat="59.9492834" lon="17.667845">
        <ele>19.3638</ele>
        <time>2012-04-12T17:32:32Z</time>
      </trkpt>
      <trkpt lat="59.9487032" lon="17.6675104">
        <ele>19.3638</ele>
        <time>2012-04-12T17:32:42Z</time>
      </trkpt>
      <trkpt lat="59.9481379" lon="17.6671852">
        <ele>19.3638</ele>
        <time>2012-04-12T17:32:52Z</time>
      </trkpt>
      <trkpt lat="59.9474493" lon="17.666821">
        <ele>19.8444</ele>
        <time>2012-04-12T17:33:04Z</time>
      </trkpt>
      <trkpt lat="59.9467978" lon="17.6665246">
        <ele>20.325</ele>
        <time>2012-04-12T17:33:15Z</time>
      </trkpt>
      <trkpt lat="59.946432" lon="17.6664594">
        <ele>20.325</ele>
        <time>2012-04-12T17:33:21Z</time>
      </trkpt>
      <trkpt lat="59.9461938" lon="17.6663066">
        <ele>20.325</ele>
        <time>2012-04-12T17:33:25Z</time>
      </trkpt>
      <trkpt lat="59.9457056" lon="17.666103">
        <ele>20.8057</ele>
        <time>2012-04-12T17:33:33Z</time>
      </trkpt>
      <trkpt lat="59.9449836" lon="17.6658231">
        <ele>21.2864</ele>
        <time>2012-04-12T17:33:45Z</time>
      </trkpt>
      <trkpt lat="59.9443392" lon="17.6655743">
        <ele>22.2476</ele>
        <time>2012-04-12T17:33:56Z</time>
      </trkpt>
      <trkpt lat="59.9437736" lon="17.6653053">
        <ele>23.209</ele>
        <time>2012-04-12T17:34:06Z</time>
      </trkpt>
      <trkpt lat="59.9431313" lon="17.6648364">
        <ele>24.1703</ele>
        <time>2012-04-12T17:34:18Z</time>
      </trkpt>
      <trkpt lat="59.9426294" lon="17.6643318">
        <ele>25.1317</ele>
        <time>2012-04-12T17:34:28Z</time>
      </trkpt>
      <trkpt lat="59.9421758" lon="17.6637514">
        <ele>25.6123</ele>
        <time>2012-04-12T17:34:38Z</time>
      </trkpt>
      <trkpt lat="59.9417615" lon="17.6630949">
        <ele>26.0929</ele>
        <time>2012-04-12T17:34:48Z</time>
      </trkpt>
      <trkpt lat="59.9414112" lon="17.6625096">
        <ele>25.6123</ele>
        <time>2012-04-12T17:34:56Z</time>
      </trkpt>
      <trkpt lat="59.9410643" lon="17.6621931">
        <ele>25.6123</ele>
        <time>2012-04-12T17:35:02Z</time>
      </trkpt>
      <trkpt lat="59.9406784" lon="17.6620649">
        <ele>25.1317</ele>
        <time>2012-04-12T17:35:08Z</time>
      </trkpt>
      <trkpt lat="59.9404427" lon="17.6617992">
        <ele>24.651</ele>
        <time>2012-04-12T17:35:12Z</time>
      </trkpt>
      <trkpt lat="59.9403682" lon="17.6613742">
        <ele>24.1703</ele>
        <time>2012-04-12T17:35:15Z</time>
      </trkpt>
      <trkpt lat="59.9403802" lon="17.6609238">
        <ele>23.6896</ele>
        <time>2012-04-12T17:35:18Z</time>
      </trkpt>
      <trkpt lat="59.9404122" lon="17.6607893">
        <ele>24.1703</ele>
        <time>2012-04-12T17:35:19Z</time>
      </trkpt>
      <trkpt lat="59.9404957" lon="17.6601858">
        <ele>25.6123</ele>
        <time>2012-04-12T17:35:24Z</time>
      </trkpt>
      <trkpt lat="59.9404178" lon="17.6597978">
        <ele>27.5349</ele>
        <time>2012-04-12T17:35:28Z</time>
      </trkpt>
      <trkpt lat="59.9402696" lon="17.6590133">
        <ele>26.0929</ele>
        <time>2012-04-12T17:35:34Z</time>
      </trkpt>
      <trkpt lat="59.9400631" lon="17.6580787">
        <ele>26.0929</ele>
        <time>2012-04-12T17:35:41Z</time>
      </trkpt>
      <trkpt lat="59.9398636" lon="17.6571091">
        <ele>27.0543</ele>
        <time>2012-04-12T17:35:49Z</time>
      </trkpt>
      <trkpt lat="59.9396383" lon="17.6560115">
        <ele>27.5349</ele>
        <time>2012-04-12T17:35:59Z</time>
      </trkpt>
      <trkpt lat="59.9394264" lon="17.6549393">
        <ele>28.4962</ele>
        <time>2012-04-12T17:36:09Z</time>
      </trkpt>
      <trkpt lat="59.9392058" lon="17.6538411">
        <ele>28.0155</ele>
        <time>2012-04-12T17:36:19Z</time>
      </trkpt>
      <trkpt lat="59.9389037" lon="17.6525913">
        <ele>27.0543</ele>
        <time>2012-04-12T17:36:30Z</time>
      </trkpt>
      <trkpt lat="59.938539" lon="17.6513372">
        <ele>26.5736</ele>
        <time>2012-04-12T17:36:41Z</time>
      </trkpt>
      <trkpt lat="59.9382835" lon="17.6507181">
        <ele>26.5736</ele>
        <time>2012-04-12T17:36:47Z</time>
      </trkpt>
      <trkpt lat="59.9380459" lon="17.6500762">
        <ele>26.0929</ele>
        <time>2012-04-12T17:36:53Z</time>
      </trkpt>
      <trkpt lat="59.9379226" lon="17.6497669">
        <ele>26.5736</ele>
        <time>2012-04-12T17:36:57Z</time>
      </trkpt>
      <trkpt lat="59.9377976" lon="17.6495028">
        <ele>27.0543</ele>
        <time>2012-04-12T17:37:04Z</time>
      </trkpt>
      <trkpt lat="59.9377428" lon="17.6492709">
        <ele>27.0543</ele>
        <time>2012-04-12T17:37:10Z</time>
      </trkpt>
      <trkpt lat="59.9376594" lon="17.648934">
        <ele>27.5349</ele>
        <time>2012-04-12T17:37:15Z</time>
      </trkpt>
      <trkpt lat="59.937533" lon="17.6486684">
        <ele>28.0155</ele>
        <time>2012-04-12T17:37:19Z</time>
      </trkpt>
      <trkpt lat="59.9374242" lon="17.6484616">
        <ele>28.0155</ele>
        <time>2012-04-12T17:37:22Z</time>
      </trkpt>
      <trkpt lat="59.9373052" lon="17.6482186">
        <ele>27.5349</ele>
        <time>2012-04-12T17:37:25Z</time>
      </trkpt>
      <trkpt lat="59.936944" lon="17.6477467">
        <ele>28.0155</ele>
        <time>2012-04-12T17:37:32Z</time>
      </trkpt>
      <trkpt lat="59.9365134" lon="17.6472003">
        <ele>28.4962</ele>
        <time>2012-04-12T17:37:40Z</time>
      </trkpt>
      <trkpt lat="59.9360623" lon="17.6466213">
        <ele>29.9381</ele>
        <time>2012-04-12T17:37:48Z</time>
      </trkpt>
      <trkpt lat="59.9356127" lon="17.6460636">
        <ele>29.9381</ele>
        <time>2012-04-12T17:37:56Z</time>
      </trkpt>
      <trkpt lat="59.9351881" lon="17.6455853">
        <ele>29.4575</ele>
        <time>2012-04-12T17:38:03Z</time>
      </trkpt>
      <trkpt lat="59.9348289" lon="17.6451885">
        <ele>28.4962</ele>
        <time>2012-04-12T17:38:09Z</time>
      </trkpt>
      <trkpt lat="59.9344188" lon="17.6446471">
        <ele>27.5349</ele>
        <time>2012-04-12T17:38:16Z</time>
      </trkpt>
      <trkpt lat="59.9343628" lon="17.6445461">
        <ele>26.5736</ele>
        <time>2012-04-12T17:38:17Z</time>
      </trkpt>
      <trkpt lat="59.9338717" lon="17.6438911">
        <ele>24.651</ele>
        <time>2012-04-12T17:38:24Z</time>
      </trkpt>
      <trkpt lat="59.9334979" lon="17.6435105">
        <ele>23.6896</ele>
        <time>2012-04-12T17:38:29Z</time>
      </trkpt>
      <trkpt lat="59.9331273" lon="17.6429303">
        <ele>20.8057</ele>
        <time>2012-04-12T17:38:34Z</time>
      </trkpt>
      <trkpt lat="59.9328775" lon="17.6425961">
        <ele>19.8444</ele>
        <time>2012-04-12T17:38:37Z</time>
      </trkpt>
      <trkpt lat="59.9325797" lon="17.6421181">
        <ele>18.4023</ele>
        <time>2012-04-12T17:38:41Z</time>
      </trkpt>
      <trkpt lat="59.931932" lon="17.6415038">
        <ele>17.9218</ele>
        <time>2012-04-12T17:38:49Z</time>
      </trkpt>
      <trkpt lat="59.9315231" lon="17.6412298">
        <ele>17.4412</ele>
        <time>2012-04-12T17:38:54Z</time>
      </trkpt>
      <trkpt lat="59.9309453" lon="17.6408128">
        <ele>15.0377</ele>
        <time>2012-04-12T17:39:01Z</time>
      </trkpt>
      <trkpt lat="59.9305793" lon="17.6407433">
        <ele>15.0377</ele>
        <time>2012-04-12T17:39:05Z</time>
      </trkpt>
      <trkpt lat="59.9300212" lon="17.6407635">
        <ele>14.557</ele>
        <time>2012-04-12T17:39:11Z</time>
      </trkpt>
      <trkpt lat="59.9294868" lon="17.6408307">
        <ele>15.0377</ele>
        <time>2012-04-12T17:39:17Z</time>
      </trkpt>
      <trkpt lat="59.9288677" lon="17.6408908">
        <ele>15.5184</ele>
        <time>2012-04-12T17:39:24Z</time>
      </trkpt>
      <trkpt lat="59.9282804" lon="17.6410068">
        <ele>15.999</ele>
        <time>2012-04-12T17:39:31Z</time>
      </trkpt>
      <trkpt lat="59.927231" lon="17.6411199">
        <ele>16.9604</ele>
        <time>2012-04-12T17:39:44Z</time>
      </trkpt>
      <trkpt lat="59.9264772" lon="17.6411996">
        <ele>17.4412</ele>
        <time>2012-04-12T17:39:54Z</time>
      </trkpt>
      <trkpt lat="59.9257572" lon="17.6412956">
        <ele>17.4412</ele>
        <time>2012-04-12T17:40:04Z</time>
      </trkpt>
      <trkpt lat="59.9251594" lon="17.6413607">
        <ele>17.9218</ele>
        <time>2012-04-12T17:40:13Z</time>
      </trkpt>
      <trkpt lat="59.9245966" lon="17.6414276">
        <ele>17.9218</ele>
        <time>2012-04-12T17:40:22Z</time>
      </trkpt>
      <trkpt lat="59.9241099" lon="17.6414918">
        <ele>18.4023</ele>
        <time>2012-04-12T17:40:30Z</time>
      </trkpt>
      <trkpt lat="59.9234551" lon="17.6415665">
        <ele>19.3638</ele>
        <time>2012-04-12T17:40:41Z</time>
      </trkpt>
      <trkpt lat="59.9227997" lon="17.6416548">
        <ele>20.8057</ele>
        <time>2012-04-12T17:40:53Z</time>
      </trkpt>
      <trkpt lat="59.92269" lon="17.6416673">
        <ele>20.8057</ele>
        <time>2012-04-12T17:40:55Z</time>
      </trkpt>
      <trkpt lat="59.9224484" lon="17.6416741">
        <ele>20.8057</ele>
        <time>2012-04-12T17:40:59Z</time>
      </trkpt>
      <trkpt lat="59.9218572" lon="17.6417529">
        <ele>20.8057</ele>
        <time>2012-04-12T17:41:09Z</time>
      </trkpt>
      <trkpt lat="59.9215582" lon="17.6418072">
        <ele>20.8057</ele>
        <time>2012-04-12T17:41:14Z</time>
      </trkpt>
      <trkpt lat="59.9211935" lon="17.6418565">
        <ele>21.2864</ele>
        <time>2012-04-12T17:41:20Z</time>
      </trkpt>
      <trkpt lat="59.9206285" lon="17.6418912">
        <ele>18.8831</ele>
        <time>2012-04-12T17:41:28Z</time>
      </trkpt>
      <trkpt lat="59.9200705" lon="17.6418928">
        <ele>17.4412</ele>
        <time>2012-04-12T17:41:36Z</time>
      </trkpt>
      <trkpt lat="59.9196025" lon="17.6419881">
        <ele>17.9218</ele>
        <time>2012-04-12T17:41:43Z</time>
      </trkpt>
      <trkpt lat="59.9190126" lon="17.6420579">
        <ele>18.8831</ele>
        <time>2012-04-12T17:41:52Z</time>
      </trkpt>
      <trkpt lat="59.9182129" lon="17.6421508">
        <ele>18.4023</ele>
        <time>2012-04-12T17:42:04Z</time>
      </trkpt>
      <trkpt lat="59.9175879" lon="17.6422026">
        <ele>16.4797</ele>
        <time>2012-04-12T17:42:12Z</time>
      </trkpt>
      <trkpt lat="59.9171202" lon="17.6422021">
        <ele>16.4797</ele>
        <time>2012-04-12T17:42:18Z</time>
      </trkpt>
      <trkpt lat="59.9166239" lon="17.6423155">
        <ele>17.9218</ele>
        <time>2012-04-12T17:42:25Z</time>
      </trkpt>
      <trkpt lat="59.9160678" lon="17.6423863">
        <ele>18.4023</ele>
        <time>2012-04-12T17:42:34Z</time>
      </trkpt>
      <trkpt lat="59.9154627" lon="17.6424264">
        <ele>18.4023</ele>
        <time>2012-04-12T17:42:43Z</time>
      </trkpt>
      <trkpt lat="59.9153245" lon="17.6424609">
        <ele>18.4023</ele>
        <time>2012-04-12T17:42:45Z</time>
      </trkpt>
      <trkpt lat="59.9151381" lon="17.6425792">
        <ele>18.4023</ele>
        <time>2012-04-12T17:42:48Z</time>
      </trkpt>
      <trkpt lat="59.9148104" lon="17.6426877">
        <ele>18.8831</ele>
        <time>2012-04-12T17:42:54Z</time>
      </trkpt>
      <trkpt lat="59.9142169" lon="17.6428014">
        <ele>20.325</ele>
        <time>2012-04-12T17:43:05Z</time>
      </trkpt>
      <trkpt lat="59.9137424" lon="17.6428854">
        <ele>21.2864</ele>
        <time>2012-04-12T17:43:14Z</time>
      </trkpt>
      <trkpt lat="59.9132235" lon="17.6429941">
        <ele>20.8057</ele>
        <time>2012-04-12T17:43:24Z</time>
      </trkpt>
      <trkpt lat="59.9127826" lon="17.6430771">
        <ele>20.8057</ele>
        <time>2012-04-12T17:43:32Z</time>
      </trkpt>
      <trkpt lat="59.9127251" lon="17.6430774">
        <ele>20.325</ele>
        <time>2012-04-12T17:43:33Z</time>
      </trkpt>
      <trkpt lat="59.91239" lon="17.6429862">
        <ele>19.3638</ele>
        <time>2012-04-12T17:43:38Z</time>
      </trkpt>
      <trkpt lat="59.9118714" lon="17.6431307">
        <ele>19.8444</ele>
        <time>2012-04-12T17:43:46Z</time>
      </trkpt>
      <trkpt lat="59.9114627" lon="17.643212">
        <ele>19.3638</ele>
        <time>2012-04-12T17:43:53Z</time>
      </trkpt>
      <trkpt lat="59.910983" lon="17.6433234">
        <ele>19.3638</ele>
        <time>2012-04-12T17:44:01Z</time>
      </trkpt>
      <trkpt lat="59.9104651" lon="17.643466">
        <ele>19.8444</ele>
        <time>2012-04-12T17:44:09Z</time>
      </trkpt>
      <trkpt lat="59.9104033" lon="17.6435023">
        <ele>20.325</ele>
        <time>2012-04-12T17:44:10Z</time>
      </trkpt>
      <trkpt lat="59.9100892" lon="17.6435715">
        <ele>19.8444</ele>
        <time>2012-04-12T17:44:15Z</time>
      </trkpt>
      <trkpt lat="59.9098041" lon="17.643496">
        <ele>18.8831</ele>
        <time>2012-04-12T17:44:19Z</time>
      </trkpt>
      <trkpt lat="59.9092736" lon="17.6435793">
        <ele>19.3638</ele>
        <time>2012-04-12T17:44:26Z</time>
      </trkpt>
      <trkpt lat="59.9086324" lon="17.6436562">
        <ele>20.325</ele>
        <time>2012-04-12T17:44:35Z</time>
      </trkpt>
      <trkpt lat="59.9080265" lon="17.6436235">
        <ele>20.8057</ele>
        <time>2012-04-12T17:44:44Z</time>
      </trkpt>
      <trkpt lat="59.9072947" lon="17.6434967">
        <ele>19.8444</ele>
        <time>2012-04-12T17:44:54Z</time>
      </trkpt>
      <trkpt lat="59.9066357" lon="17.6433411">
        <ele>18.8831</ele>
        <time>2012-04-12T17:45:03Z</time>
      </trkpt>
      <trkpt lat="59.9060254" lon="17.6431121">
        <ele>17.4412</ele>
        <time>2012-04-12T17:45:11Z</time>
      </trkpt>
      <trkpt lat="59.9055464" lon="17.6428978">
        <ele>16.9604</ele>
        <time>2012-04-12T17:45:17Z</time>
      </trkpt>
      <trkpt lat="59.9053906" lon="17.6428763">
        <ele>16.9604</ele>
        <time>2012-04-12T17:45:19Z</time>
      </trkpt>
      <trkpt lat="59.9048819" lon="17.6426736">
        <ele>15.5184</ele>
        <time>2012-04-12T17:45:26Z</time>
      </trkpt>
      <trkpt lat="59.9045198" lon="17.6424097">
        <ele>14.557</ele>
        <time>2012-04-12T17:45:31Z</time>
      </trkpt>
      <trkpt lat="59.9039658" lon="17.6420912">
        <ele>15.0377</ele>
        <time>2012-04-12T17:45:39Z</time>
      </trkpt>
      <trkpt lat="59.903651" lon="17.6419369">
        <ele>15.999</ele>
        <time>2012-04-12T17:45:44Z</time>
      </trkpt>
      <trkpt lat="59.9034121" lon="17.6418944">
        <ele>15.5184</ele>
        <time>2012-04-12T17:45:48Z</time>
      </trkpt>
      <trkpt lat="59.9028951" lon="17.6415985">
        <ele>15.0377</ele>
        <time>2012-04-12T17:45:56Z</time>
      </trkpt>
      <trkpt lat="59.902255" lon="17.6411991">
        <ele>14.557</ele>
        <time>2012-04-12T17:46:06Z</time>
      </trkpt>
      <trkpt lat="59.9016583" lon="17.6407172">
        <ele>15.0377</ele>
        <time>2012-04-12T17:46:16Z</time>
      </trkpt>
      <trkpt lat="59.9010936" lon="17.6401826">
        <ele>15.0377</ele>
        <time>2012-04-12T17:46:26Z</time>
      </trkpt>
      <trkpt lat="59.9004974" lon="17.6395675">
        <ele>15.0377</ele>
        <time>2012-04-12T17:46:37Z</time>
      </trkpt>
      <trkpt lat="59.8999376" lon="17.6390024">
        <ele>15.5184</ele>
        <time>2012-04-12T17:46:47Z</time>
      </trkpt>
      <trkpt lat="59.8994393" lon="17.6384961">
        <ele>15.999</ele>
        <time>2012-04-12T17:46:56Z</time>
      </trkpt>
      <trkpt lat="59.8990829" lon="17.6381625">
        <ele>17.4412</ele>
        <time>2012-04-12T17:47:03Z</time>
      </trkpt>
      <trkpt lat="59.8987101" lon="17.6378264">
        <ele>17.9218</ele>
        <time>2012-04-12T17:47:11Z</time>
      </trkpt>
      <trkpt lat="59.8982719" lon="17.6374295">
        <ele>18.4023</ele>
        <time>2012-04-12T17:47:20Z</time>
      </trkpt>
      <trkpt lat="59.8979337" lon="17.6371593">
        <ele>17.9218</ele>
        <time>2012-04-12T17:47:27Z</time>
      </trkpt>
      <trkpt lat="59.8978302" lon="17.6370731">
        <ele>17.9218</ele>
        <time>2012-04-12T17:47:29Z</time>
      </trkpt>
      <trkpt lat="59.8975867" lon="17.6369508">
        <ele>18.8831</ele>
        <time>2012-04-12T17:47:35Z</time>
      </trkpt>
      <trkpt lat="59.897407" lon="17.6368122">
        <ele>19.8444</ele>
        <time>2012-04-12T17:47:40Z</time>
      </trkpt>
      <trkpt lat="59.89716" lon="17.636781">
        <ele>20.8057</ele>
        <time>2012-04-12T17:47:46Z</time>
      </trkpt>
      <trkpt lat="59.8970729" lon="17.6367557">
        <ele>20.8057</ele>
        <time>2012-04-12T17:47:48Z</time>
      </trkpt>
      <trkpt lat="59.8967346" lon="17.636611">
        <ele>22.2476</ele>
        <time>2012-04-12T17:47:55Z</time>
      </trkpt>
      <trkpt lat="59.8962886" lon="17.6364559">
        <ele>22.2476</ele>
        <time>2012-04-12T17:48:03Z</time>
      </trkpt>
      <trkpt lat="59.8959898" lon="17.6363396">
        <ele>22.2476</ele>
        <time>2012-04-12T17:48:08Z</time>
      </trkpt>
      <trkpt lat="59.8954925" lon="17.6364237">
        <ele>22.2476</ele>
        <time>2012-04-12T17:48:16Z</time>
      </trkpt>
      <trkpt lat="59.8951211" lon="17.6366687">
        <ele>22.7283</ele>
        <time>2012-04-12T17:48:22Z</time>
      </trkpt>
      <trkpt lat="59.8945705" lon="17.6370322">
        <ele>21.767</ele>
        <time>2012-04-12T17:48:31Z</time>
      </trkpt>
      <trkpt lat="59.8941969" lon="17.637267">
        <ele>22.7283</ele>
        <time>2012-04-12T17:48:38Z</time>
      </trkpt>
      <trkpt lat="59.8941072" lon="17.6373153">
        <ele>23.209</ele>
        <time>2012-04-12T17:48:40Z</time>
      </trkpt>
      <trkpt lat="59.893811" lon="17.6375373">
        <ele>23.209</ele>
        <time>2012-04-12T17:48:45Z</time>
      </trkpt>
      <trkpt lat="59.8932182" lon="17.6379777">
        <ele>21.767</ele>
        <time>2012-04-12T17:48:54Z</time>
      </trkpt>
      <trkpt lat="59.8929287" lon="17.6381332">
        <ele>22.7283</ele>
        <time>2012-04-12T17:48:58Z</time>
      </trkpt>
      <trkpt lat="59.8925837" lon="17.6381289">
        <ele>19.8444</ele>
        <time>2012-04-12T17:49:03Z</time>
      </trkpt>
      <trkpt lat="59.8922293" lon="17.6381754">
        <ele>19.3638</ele>
        <time>2012-04-12T17:49:08Z</time>
      </trkpt>
      <trkpt lat="59.8921549" lon="17.6381999">
        <ele>18.8831</ele>
        <time>2012-04-12T17:49:09Z</time>
      </trkpt>
      <trkpt lat="59.8920083" lon="17.6382983">
        <ele>18.8831</ele>
        <time>2012-04-12T17:49:11Z</time>
      </trkpt>
      <trkpt lat="59.8916274" lon="17.6384242">
        <ele>17.9218</ele>
        <time>2012-04-12T17:49:16Z</time>
      </trkpt>
      <trkpt lat="59.8909257" lon="17.6384041">
        <ele>17.9218</ele>
        <time>2012-04-12T17:49:25Z</time>
      </trkpt>
      <trkpt lat="59.8902467" lon="17.6382513">
        <ele>16.9604</ele>
        <time>2012-04-12T17:49:34Z</time>
      </trkpt>
      <trkpt lat="59.8896508" lon="17.6380215">
        <ele>17.4412</ele>
        <time>2012-04-12T17:49:42Z</time>
      </trkpt>
      <trkpt lat="59.8890934" lon="17.637814">
        <ele>18.4023</ele>
        <time>2012-04-12T17:49:50Z</time>
      </trkpt>
      <trkpt lat="59.8886159" lon="17.6378082">
        <ele>17.9218</ele>
        <time>2012-04-12T17:49:57Z</time>
      </trkpt>
      <trkpt lat="59.8879905" lon="17.637857">
        <ele>17.4412</ele>
        <time>2012-04-12T17:50:06Z</time>
      </trkpt>
      <trkpt lat="59.8874198" lon="17.637691">
        <ele>16.9604</ele>
        <time>2012-04-12T17:50:14Z</time>
      </trkpt>
      <trkpt lat="59.8866987" lon="17.637388">
        <ele>15.999</ele>
        <time>2012-04-12T17:50:24Z</time>
      </trkpt>
      <trkpt lat="59.8863439" lon="17.6372985">
        <ele>15.999</ele>
        <time>2012-04-12T17:50:29Z</time>
      </trkpt>
      <trkpt lat="59.8860507" lon="17.6372022">
        <ele>15.999</ele>
        <time>2012-04-12T17:50:33Z</time>
      </trkpt>
      <trkpt lat="59.8857223" lon="17.6369447">
        <ele>15.5184</ele>
        <time>2012-04-12T17:50:38Z</time>
      </trkpt>
      <trkpt lat="59.8852705" lon="17.636525">
        <ele>14.557</ele>
        <time>2012-04-12T17:50:45Z</time>
      </trkpt>
      <trkpt lat="59.8850048" lon="17.6362816">
        <ele>14.557</ele>
        <time>2012-04-12T17:50:49Z</time>
      </trkpt>
      <trkpt lat="59.8846654" lon="17.6360792">
        <ele>14.557</ele>
        <time>2012-04-12T17:50:54Z</time>
      </trkpt>
      <trkpt lat="59.8840739" lon="17.6356637">
        <ele>13.5958</ele>
        <time>2012-04-12T17:51:02Z</time>
      </trkpt>
      <trkpt lat="59.8835906" lon="17.6354243">
        <ele>16.4797</ele>
        <time>2012-04-12T17:51:08Z</time>
      </trkpt>
      <trkpt lat="59.8830983" lon="17.6354119">
        <ele>15.999</ele>
        <time>2012-04-12T17:51:15Z</time>
      </trkpt>
      <trkpt lat="59.8827447" lon="17.6355301">
        <ele>14.557</ele>
        <time>2012-04-12T17:51:20Z</time>
      </trkpt>
      <trkpt lat="59.8821428" lon="17.635718">
        <ele>14.0764</ele>
        <time>2012-04-12T17:51:28Z</time>
      </trkpt>
      <trkpt lat="59.8817256" lon="17.6358164">
        <ele>14.557</ele>
        <time>2012-04-12T17:51:34Z</time>
      </trkpt>
      <trkpt lat="59.8816583" lon="17.6358244">
        <ele>14.557</ele>
        <time>2012-04-12T17:51:35Z</time>
      </trkpt>
      <trkpt lat="59.8814" lon="17.6356757">
        <ele>14.557</ele>
        <time>2012-04-12T17:51:39Z</time>
      </trkpt>
      <trkpt lat="59.8811394" lon="17.6355591">
        <ele>14.0764</ele>
        <time>2012-04-12T17:51:43Z</time>
      </trkpt>
      <trkpt lat="59.8804338" lon="17.635625">
        <ele>13.1151</ele>
        <time>2012-04-12T17:51:53Z</time>
      </trkpt>
      <trkpt lat="59.8793982" lon="17.6356884">
        <ele>12.1538</ele>
        <time>2012-04-12T17:52:07Z</time>
      </trkpt>
      <trkpt lat="59.8787792" lon="17.6357186">
        <ele>11.1925</ele>
        <time>2012-04-12T17:52:15Z</time>
      </trkpt>
      <trkpt lat="59.8783167" lon="17.6357466">
        <ele>10.2312</ele>
        <time>2012-04-12T17:52:21Z</time>
      </trkpt>
      <trkpt lat="59.8781014" lon="17.6360113">
        <ele>9.2699</ele>
        <time>2012-04-12T17:52:25Z</time>
      </trkpt>
      <trkpt lat="59.8779686" lon="17.6363593">
        <ele>9.75061</ele>
        <time>2012-04-12T17:52:29Z</time>
      </trkpt>
      <trkpt lat="59.8779622" lon="17.6365868">
        <ele>10.2312</ele>
        <time>2012-04-12T17:52:31Z</time>
      </trkpt>
      <trkpt lat="59.8779836" lon="17.637109">
        <ele>11.6732</ele>
        <time>2012-04-12T17:52:36Z</time>
      </trkpt>
      <trkpt lat="59.8781102" lon="17.6376421">
        <ele>13.1151</ele>
        <time>2012-04-12T17:52:42Z</time>
      </trkpt>
      <trkpt lat="59.8782964" lon="17.6378849">
        <ele>13.1151</ele>
        <time>2012-04-12T17:52:46Z</time>
      </trkpt>
      <trkpt lat="59.8783559" lon="17.6379193">
        <ele>13.1151</ele>
        <time>2012-04-12T17:52:47Z</time>
      </trkpt>
      <trkpt lat="59.8785569" lon="17.6380225">
        <ele>12.6344</ele>
        <time>2012-04-12T17:52:50Z</time>
      </trkpt>
      <trkpt lat="59.8788379" lon="17.6384407">
        <ele>12.1538</ele>
        <time>2012-04-12T17:52:55Z</time>
      </trkpt>
      <trkpt lat="59.878848" lon="17.6388681">
        <ele>9.75061</ele>
        <time>2012-04-12T17:52:58Z</time>
      </trkpt>
      <trkpt lat="59.878812" lon="17.639654">
        <ele>10.7118</ele>
        <time>2012-04-12T17:53:04Z</time>
      </trkpt>
      <trkpt lat="59.8788202" lon="17.6402849">
        <ele>14.0764</ele>
        <time>2012-04-12T17:53:09Z</time>
      </trkpt>
      <trkpt lat="59.8787838" lon="17.6408506">
        <ele>15.999</ele>
        <time>2012-04-12T17:53:14Z</time>
      </trkpt>
      <trkpt lat="59.8787271" lon="17.6415017">
        <ele>18.4023</ele>
        <time>2012-04-12T17:53:20Z</time>
      </trkpt>
      <trkpt lat="59.8787567" lon="17.6422024">
        <ele>22.7283</ele>
        <time>2012-04-12T17:53:26Z</time>
      </trkpt>
      <trkpt lat="59.8788161" lon="17.6431183">
        <ele>22.7283</ele>
        <time>2012-04-12T17:53:33Z</time>
      </trkpt>
      <trkpt lat="59.878856" lon="17.6438944">
        <ele>23.209</ele>
        <time>2012-04-12T17:53:39Z</time>
      </trkpt>
      <trkpt lat="59.8789151" lon="17.6443858">
        <ele>21.767</ele>
        <time>2012-04-12T17:53:43Z</time>
      </trkpt>
      <trkpt lat="59.8789705" lon="17.6446419">
        <ele>21.2864</ele>
        <time>2012-04-12T17:53:45Z</time>
      </trkpt>
      <trkpt lat="59.8790321" lon="17.6453236">
        <ele>21.767</ele>
        <time>2012-04-12T17:53:50Z</time>
      </trkpt>
      <trkpt lat="59.8790442" lon="17.6456996">
        <ele>21.767</ele>
        <time>2012-04-12T17:53:53Z</time>
      </trkpt>
      <trkpt lat="59.8790668" lon="17.6462631">
        <ele>19.8444</ele>
        <time>2012-04-12T17:53:58Z</time>
      </trkpt>
      <trkpt lat="59.8790782" lon="17.6467605">
        <ele>19.3638</ele>
        <time>2012-04-12T17:54:02Z</time>
      </trkpt>
      <trkpt lat="59.8790982" lon="17.6474854">
        <ele>19.8444</ele>
        <time>2012-04-12T17:54:07Z</time>
      </trkpt>
      <trkpt lat="59.8790853" lon="17.6482725">
        <ele>16.4797</ele>
        <time>2012-04-12T17:54:13Z</time>
      </trkpt>
      <trkpt lat="59.8790706" lon="17.6492318">
        <ele>15.0377</ele>
        <time>2012-04-12T17:54:20Z</time>
      </trkpt>
      <trkpt lat="59.8790751" lon="17.6501654">
        <ele>12.6344</ele>
        <time>2012-04-12T17:54:27Z</time>
      </trkpt>
      <trkpt lat="59.8790524" lon="17.6507789">
        <ele>12.6344</ele>
        <time>2012-04-12T17:54:32Z</time>
      </trkpt>
      <trkpt lat="59.8790518" lon="17.6512815">
        <ele>11.6732</ele>
        <time>2012-04-12T17:54:36Z</time>
      </trkpt>
      <trkpt lat="59.8790372" lon="17.6518138">
        <ele>12.6344</ele>
        <time>2012-04-12T17:54:40Z</time>
      </trkpt>
      <trkpt lat="59.8790513" lon="17.6520852">
        <ele>12.1538</ele>
        <time>2012-04-12T17:54:42Z</time>
      </trkpt>
      <trkpt lat="59.8790467" lon="17.6527471">
        <ele>13.1151</ele>
        <time>2012-04-12T17:54:47Z</time>
      </trkpt>
      <trkpt lat="59.8790794" lon="17.6536786">
        <ele>15.999</ele>
        <time>2012-04-12T17:54:54Z</time>
      </trkpt>
      <trkpt lat="59.8790835" lon="17.6546782">
        <ele>14.557</ele>
        <time>2012-04-12T17:55:02Z</time>
      </trkpt>
      <trkpt lat="59.8790881" lon="17.6555179">
        <ele>12.6344</ele>
        <time>2012-04-12T17:55:08Z</time>
      </trkpt>
      <trkpt lat="59.8791301" lon="17.6563392">
        <ele>15.999</ele>
        <time>2012-04-12T17:55:14Z</time>
      </trkpt>
      <trkpt lat="59.8791206" lon="17.6570352">
        <ele>18.8831</ele>
        <time>2012-04-12T17:55:21Z</time>
      </trkpt>
      <trkpt lat="59.879125" lon="17.6577627">
        <ele>18.8831</ele>
        <time>2012-04-12T17:55:28Z</time>
      </trkpt>
      <trkpt lat="59.8791074" lon="17.6581013">
        <ele>18.8831</ele>
        <time>2012-04-12T17:55:31Z</time>
      </trkpt>
      <trkpt lat="59.8789773" lon="17.6585846">
        <ele>17.9218</ele>
        <time>2012-04-12T17:55:36Z</time>
      </trkpt>
      <trkpt lat="59.8789305" lon="17.6586428">
        <ele>17.9218</ele>
        <time>2012-04-12T17:55:37Z</time>
      </trkpt>
      <trkpt lat="59.8788208" lon="17.658749">
        <ele>18.8831</ele>
        <time>2012-04-12T17:55:39Z</time>
      </trkpt>
      <trkpt lat="59.8787277" lon="17.6591362">
        <ele>19.8444</ele>
        <time>2012-04-12T17:55:43Z</time>
      </trkpt>
      <trkpt lat="59.8787256" lon="17.6603982">
        <ele>19.8444</ele>
        <time>2012-04-12T17:55:54Z</time>
      </trkpt>
      <trkpt lat="59.8787213" lon="17.6605099">
        <ele>20.325</ele>
        <time>2012-04-12T17:55:55Z</time>
      </trkpt>
      <trkpt lat="59.8786587" lon="17.6607779">
        <ele>21.767</ele>
        <time>2012-04-12T17:55:58Z</time>
      </trkpt>
      <trkpt lat="59.878509" lon="17.6609726">
        <ele>21.2864</ele>
        <time>2012-04-12T17:56:02Z</time>
      </trkpt>
      <trkpt lat="59.8783252" lon="17.6610701">
        <ele>24.1703</ele>
        <time>2012-04-12T17:56:06Z</time>
      </trkpt>
      <trkpt lat="59.8781018" lon="17.6613156">
        <ele>20.325</ele>
        <time>2012-04-12T17:56:11Z</time>
      </trkpt>
      <trkpt lat="59.8780182" lon="17.661722">
        <ele>20.325</ele>
        <time>2012-04-12T17:56:15Z</time>
      </trkpt>
      <trkpt lat="59.8780148" lon="17.6618342">
        <ele>20.325</ele>
        <time>2012-04-12T17:56:16Z</time>
      </trkpt>
      <trkpt lat="59.8780152" lon="17.6632465">
        <ele>21.2864</ele>
        <time>2012-04-12T17:56:29Z</time>
      </trkpt>
      <trkpt lat="59.8779346" lon="17.6636668">
        <ele>21.2864</ele>
        <time>2012-04-12T17:56:33Z</time>
      </trkpt>
      <trkpt lat="59.8776386" lon="17.6644636">
        <ele>20.8057</ele>
        <time>2012-04-12T17:56:42Z</time>
      </trkpt>
      <trkpt lat="59.8773864" lon="17.6651393">
        <ele>20.8057</ele>
        <time>2012-04-12T17:56:49Z</time>
      </trkpt>
      <trkpt lat="59.8771847" lon="17.6653996">
        <ele>21.767</ele>
        <time>2012-04-12T17:56:53Z</time>
      </trkpt>
      <trkpt lat="59.876654" lon="17.665727">
        <ele>21.767</ele>
        <time>2012-04-12T17:57:02Z</time>
      </trkpt>
      <trkpt lat="59.8765303" lon="17.6657804">
        <ele>21.2864</ele>
        <time>2012-04-12T17:57:04Z</time>
      </trkpt>
      <trkpt lat="59.876215" lon="17.6658022">
        <ele>20.8057</ele>
        <time>2012-04-12T17:57:09Z</time>
      </trkpt>
      <trkpt lat="59.8758972" lon="17.66597">
        <ele>19.8444</ele>
        <time>2012-04-12T17:57:14Z</time>
      </trkpt>
      <trkpt lat="59.8758402" lon="17.6660355">
        <ele>19.8444</ele>
        <time>2012-04-12T17:57:15Z</time>
      </trkpt>
      <trkpt lat="59.8754999" lon="17.6665755">
        <ele>18.8831</ele>
        <time>2012-04-12T17:57:22Z</time>
      </trkpt>
      <trkpt lat="59.8754504" lon="17.6666426">
        <ele>18.4023</ele>
        <time>2012-04-12T17:57:23Z</time>
      </trkpt>
      <trkpt lat="59.8753574" lon="17.666906">
        <ele>17.9218</ele>
        <time>2012-04-12T17:57:26Z</time>
      </trkpt>
      <trkpt lat="59.8753925" lon="17.6671019">
        <ele>17.9218</ele>
        <time>2012-04-12T17:57:28Z</time>
      </trkpt>
      <trkpt lat="59.8755802" lon="17.6680274">
        <ele>20.325</ele>
        <time>2012-04-12T17:57:38Z</time>
      </trkpt>
      <trkpt lat="59.875692" lon="17.6685947">
        <ele>22.7283</ele>
        <time>2012-04-12T17:57:45Z</time>
      </trkpt>
      <trkpt lat="59.8756981" lon="17.6692246">
        <ele>24.1703</ele>
        <time>2012-04-12T17:57:52Z</time>
      </trkpt>
      <trkpt lat="59.8757501" lon="17.6699871">
        <ele>26.0929</ele>
        <time>2012-04-12T17:58:00Z</time>
      </trkpt>
      <trkpt lat="59.8758158" lon="17.6709863">
        <ele>25.6123</ele>
        <time>2012-04-12T17:58:09Z</time>
      </trkpt>
      <trkpt lat="59.8758376" lon="17.6712749">
        <ele>24.1703</ele>
        <time>2012-04-12T17:58:11Z</time>
      </trkpt>
      <trkpt lat="59.8759814" lon="17.671927">
        <ele>21.2864</ele>
        <time>2012-04-12T17:58:15Z</time>
      </trkpt>
      <trkpt lat="59.8760363" lon="17.6720748">
        <ele>20.325</ele>
        <time>2012-04-12T17:58:16Z</time>
      </trkpt>
      <trkpt lat="59.8762002" lon="17.6728075">
        <ele>20.8057</ele>
        <time>2012-04-12T17:58:21Z</time>
      </trkpt>
      <trkpt lat="59.8761653" lon="17.6731532">
        <ele>22.2476</ele>
        <time>2012-04-12T17:58:25Z</time>
      </trkpt>
      <trkpt lat="59.8759961" lon="17.6735329">
        <ele>23.6896</ele>
        <time>2012-04-12T17:58:31Z</time>
      </trkpt>
      <trkpt lat="59.875947" lon="17.6736899">
        <ele>24.1703</ele>
        <time>2012-04-12T17:58:33Z</time>
      </trkpt>
      <trkpt lat="59.8757178" lon="17.674282">
        <ele>23.6896</ele>
        <time>2012-04-12T17:58:40Z</time>
      </trkpt>
      <trkpt lat="59.8755356" lon="17.6747037">
        <ele>22.7283</ele>
        <time>2012-04-12T17:58:44Z</time>
      </trkpt>
      <trkpt lat="59.8752331" lon="17.6750169">
        <ele>20.8057</ele>
        <time>2012-04-12T17:58:48Z</time>
      </trkpt>
      <trkpt lat="59.8748141" lon="17.6753359">
        <ele>20.325</ele>
        <time>2012-04-12T17:58:53Z</time>
      </trkpt>
      <trkpt lat="59.8746937" lon="17.6754625">
        <ele>20.325</ele>
        <time>2012-04-12T17:58:55Z</time>
      </trkpt>
      <trkpt lat="59.8745475" lon="17.6755697">
        <ele>21.767</ele>
        <time>2012-04-12T17:58:57Z</time>
      </trkpt>
      <trkpt lat="59.874425" lon="17.6760069">
        <ele>22.2476</ele>
        <time>2012-04-12T17:59:01Z</time>
      </trkpt>
      <trkpt lat="59.8744044" lon="17.676127">
        <ele>22.2476</ele>
        <time>2012-04-12T17:59:02Z</time>
      </trkpt>
      <trkpt lat="59.8742002" lon="17.6763924">
        <ele>23.209</ele>
        <time>2012-04-12T17:59:06Z</time>
      </trkpt>
      <trkpt lat="59.8736722" lon="17.6766906">
        <ele>22.2476</ele>
        <time>2012-04-12T17:59:15Z</time>
      </trkpt>
      <trkpt lat="59.8732005" lon="17.6768774">
        <ele>21.2864</ele>
        <time>2012-04-12T17:59:22Z</time>
      </trkpt>
      <trkpt lat="59.8723307" lon="17.6772671">
        <ele>19.8444</ele>
        <time>2012-04-12T17:59:34Z</time>
      </trkpt>
      <trkpt lat="59.871737" lon="17.6775386">
        <ele>18.4023</ele>
        <time>2012-04-12T17:59:42Z</time>
      </trkpt>
      <trkpt lat="59.8714853" lon="17.6774564">
        <ele>17.4412</ele>
        <time>2012-04-12T17:59:46Z</time>
      </trkpt>
      <trkpt lat="59.8714082" lon="17.6775778">
        <ele>16.9604</ele>
        <time>2012-04-12T17:59:49Z</time>
      </trkpt>
      <trkpt lat="59.8714157" lon="17.6776715">
        <ele>16.9604</ele>
        <time>2012-04-12T17:59:50Z</time>
      </trkpt>
      <trkpt lat="59.8714582" lon="17.6781287">
        <ele>17.9218</ele>
        <time>2012-04-12T17:59:54Z</time>
      </trkpt>
      <trkpt lat="59.8713753" lon="17.6785808">
        <ele>17.4412</ele>
        <time>2012-04-12T17:59:58Z</time>
      </trkpt>
      <trkpt lat="59.871145" lon="17.6788268">
        <ele>15.999</ele>
        <time>2012-04-12T18:00:02Z</time>
      </trkpt>
      <trkpt lat="59.8710114" lon="17.6788776">
        <ele>16.4797</ele>
        <time>2012-04-12T18:00:04Z</time>
      </trkpt>
      <trkpt lat="59.8705207" lon="17.6790392">
        <ele>16.9604</ele>
        <time>2012-04-12T18:00:11Z</time>
      </trkpt>
      <trkpt lat="59.8697302" lon="17.6793034">
        <ele>17.4412</ele>
        <time>2012-04-12T18:00:22Z</time>
      </trkpt>
      <trkpt lat="59.869304" lon="17.6795274">
        <ele>17.4412</ele>
        <time>2012-04-12T18:00:28Z</time>
      </trkpt>
      <trkpt lat="59.8691597" lon="17.6795506">
        <ele>16.9604</ele>
        <time>2012-04-12T18:00:30Z</time>
      </trkpt>
      <trkpt lat="59.8688823" lon="17.6793355">
        <ele>15.0377</ele>
        <time>2012-04-12T18:00:34Z</time>
      </trkpt>
      <trkpt lat="59.8686377" lon="17.6793419">
        <ele>14.0764</ele>
        <time>2012-04-12T18:00:37Z</time>
      </trkpt>
      <trkpt lat="59.8685103" lon="17.6795217">
        <ele>14.0764</ele>
        <time>2012-04-12T18:00:39Z</time>
      </trkpt>
      <trkpt lat="59.8681649" lon="17.6799759">
        <ele>15.0377</ele>
        <time>2012-04-12T18:00:45Z</time>
      </trkpt>
      <trkpt lat="59.8680974" lon="17.6800218">
        <ele>15.0377</ele>
        <time>2012-04-12T18:00:46Z</time>
      </trkpt>
      <trkpt lat="59.8675295" lon="17.680288">
        <ele>15.999</ele>
        <time>2012-04-12T18:00:54Z</time>
      </trkpt>
      <trkpt lat="59.8668806" lon="17.6805823">
        <ele>15.999</ele>
        <time>2012-04-12T18:01:03Z</time>
      </trkpt>
      <trkpt lat="59.8662198" lon="17.6809092">
        <ele>15.999</ele>
        <time>2012-04-12T18:01:12Z</time>
      </trkpt>
      <trkpt lat="59.8657555" lon="17.68119">
        <ele>15.999</ele>
        <time>2012-04-12T18:01:19Z</time>
      </trkpt>
      <trkpt lat="59.8656918" lon="17.6812351">
        <ele>15.999</ele>
        <time>2012-04-12T18:01:20Z</time>
      </trkpt>
      <trkpt lat="59.865363" lon="17.6813186">
        <ele>15.5184</ele>
        <time>2012-04-12T18:01:25Z</time>
      </trkpt>
      <trkpt lat="59.8652263" lon="17.6812942">
        <ele>15.5184</ele>
        <time>2012-04-12T18:01:27Z</time>
      </trkpt>
      <trkpt lat="59.8648951" lon="17.681419">
        <ele>15.0377</ele>
        <time>2012-04-12T18:01:32Z</time>
      </trkpt>
      <trkpt lat="59.8647846" lon="17.6816112">
        <ele>14.557</ele>
        <time>2012-04-12T18:01:34Z</time>
      </trkpt>
      <trkpt lat="59.8643941" lon="17.6820236">
        <ele>15.0377</ele>
        <time>2012-04-12T18:01:40Z</time>
      </trkpt>
      <trkpt lat="59.8637933" lon="17.6824673">
        <ele>15.999</ele>
        <time>2012-04-12T18:01:49Z</time>
      </trkpt>
      <trkpt lat="59.8633723" lon="17.6827819">
        <ele>16.4797</ele>
        <time>2012-04-12T18:01:56Z</time>
      </trkpt>
      <trkpt lat="59.86308" lon="17.6829963">
        <ele>16.4797</ele>
        <time>2012-04-12T18:02:01Z</time>
      </trkpt>
      <trkpt lat="59.8625252" lon="17.6833735">
        <ele>16.9604</ele>
        <time>2012-04-12T18:02:10Z</time>
      </trkpt>
      <trkpt lat="59.8619157" lon="17.6838022">
        <ele>17.9218</ele>
        <time>2012-04-12T18:02:20Z</time>
      </trkpt>
      <trkpt lat="59.8613716" lon="17.6842102">
        <ele>18.4023</ele>
        <time>2012-04-12T18:02:29Z</time>
      </trkpt>
      <trkpt lat="59.860938" lon="17.684581">
        <ele>18.4023</ele>
        <time>2012-04-12T18:02:36Z</time>
      </trkpt>
      <trkpt lat="59.8604371" lon="17.685111">
        <ele>18.4023</ele>
        <time>2012-04-12T18:02:44Z</time>
      </trkpt>
      <trkpt lat="59.8599042" lon="17.6857259">
        <ele>16.9604</ele>
        <time>2012-04-12T18:02:53Z</time>
      </trkpt>
      <trkpt lat="59.8596439" lon="17.6860417">
        <ele>15.0377</ele>
        <time>2012-04-12T18:02:58Z</time>
      </trkpt>
      <trkpt lat="59.8595972" lon="17.6861101">
        <ele>15.0377</ele>
        <time>2012-04-12T18:02:59Z</time>
      </trkpt>
      <trkpt lat="59.8595212" lon="17.6863993">
        <ele>14.557</ele>
        <time>2012-04-12T18:03:03Z</time>
      </trkpt>
      <trkpt lat="59.8594901" lon="17.6864562">
        <ele>14.557</ele>
        <time>2012-04-12T18:03:06Z</time>
      </trkpt>
      <trkpt lat="59.8594911" lon="17.6864577">
        <ele>14.557</ele>
        <time>2012-04-12T18:03:07Z</time>
      </trkpt>
      <trkpt lat="59.8594947" lon="17.6864644">
        <ele>15.999</ele>
        <time>2012-04-12T18:03:15Z</time>
      </trkpt>
      <trkpt lat="59.8593902" lon="17.6866302">
        <ele>16.4797</ele>
        <time>2012-04-12T18:03:20Z</time>
      </trkpt>
      <trkpt lat="59.8592328" lon="17.6866908">
        <ele>15.999</ele>
        <time>2012-04-12T18:03:23Z</time>
      </trkpt>
      <trkpt lat="59.8590566" lon="17.6867184">
        <ele>15.5184</ele>
        <time>2012-04-12T18:03:26Z</time>
      </trkpt>
      <trkpt lat="59.8589638" lon="17.6869403">
        <ele>14.557</ele>
        <time>2012-04-12T18:03:30Z</time>
      </trkpt>
      <trkpt lat="59.8589881" lon="17.6870426">
        <ele>14.557</ele>
        <time>2012-04-12T18:03:31Z</time>
      </trkpt>
      <trkpt lat="59.8591043" lon="17.6873563">
        <ele>13.1151</ele>
        <time>2012-04-12T18:03:34Z</time>
      </trkpt>
      <trkpt lat="59.8592759" lon="17.6879585">
        <ele>14.557</ele>
        <time>2012-04-12T18:03:39Z</time>
      </trkpt>
      <trkpt lat="59.8593787" lon="17.6884058">
        <ele>15.999</ele>
        <time>2012-04-12T18:03:44Z</time>
      </trkpt>
      <trkpt lat="59.8594079" lon="17.6886105">
        <ele>15.999</ele>
        <time>2012-04-12T18:03:46Z</time>
      </trkpt>
      <trkpt lat="59.8595736" lon="17.6893613">
        <ele>16.4797</ele>
        <time>2012-04-12T18:03:53Z</time>
      </trkpt>
      <trkpt lat="59.8596658" lon="17.6900604">
        <ele>16.4797</ele>
        <time>2012-04-12T18:03:59Z</time>
      </trkpt>
      <trkpt lat="59.8598517" lon="17.6910005">
        <ele>16.4797</ele>
        <time>2012-04-12T18:04:07Z</time>
      </trkpt>
      <trkpt lat="59.8600593" lon="17.6921812">
        <ele>17.4412</ele>
        <time>2012-04-12T18:04:17Z</time>
      </trkpt>
      <trkpt lat="59.8600932" lon="17.6924281">
        <ele>17.4412</ele>
        <time>2012-04-12T18:04:19Z</time>
      </trkpt>
      <trkpt lat="59.8602356" lon="17.6928501">
        <ele>17.4412</ele>
        <time>2012-04-12T18:04:23Z</time>
      </trkpt>
      <trkpt lat="59.8604722" lon="17.6932805">
        <ele>17.4412</ele>
        <time>2012-04-12T18:04:28Z</time>
      </trkpt>
      <trkpt lat="59.8605402" lon="17.6937549">
        <ele>17.9218</ele>
        <time>2012-04-12T18:04:32Z</time>
      </trkpt>
      <trkpt lat="59.8606132" lon="17.6946737">
        <ele>17.9218</ele>
        <time>2012-04-12T18:04:39Z</time>
      </trkpt>
      <trkpt lat="59.8608012" lon="17.6958117">
        <ele>17.9218</ele>
        <time>2012-04-12T18:04:48Z</time>
      </trkpt>
      <trkpt lat="59.860855" lon="17.6960483">
        <ele>17.9218</ele>
        <time>2012-04-12T18:04:50Z</time>
      </trkpt>
      <trkpt lat="59.8608925" lon="17.6965771">
        <ele>16.9604</ele>
        <time>2012-04-12T18:04:54Z</time>
      </trkpt>
      <trkpt lat="59.8609461" lon="17.6972199">
        <ele>17.4412</ele>
        <time>2012-04-12T18:04:59Z</time>
      </trkpt>
      <trkpt lat="59.8612338" lon="17.6982073">
        <ele>18.8831</ele>
        <time>2012-04-12T18:05:08Z</time>
      </trkpt>
      <trkpt lat="59.861266" lon="17.69832">
        <ele>18.8831</ele>
        <time>2012-04-12T18:05:09Z</time>
      </trkpt>
      <trkpt lat="59.8614431" lon="17.6986859">
        <ele>18.8831</ele>
        <time>2012-04-12T18:05:13Z</time>
      </trkpt>
      <trkpt lat="59.8615921" lon="17.6991066">
        <ele>19.3638</ele>
        <time>2012-04-12T18:05:17Z</time>
      </trkpt>
      <trkpt lat="59.8617011" lon="17.7002039">
        <ele>18.4023</ele>
        <time>2012-04-12T18:05:26Z</time>
      </trkpt>
      <trkpt lat="59.8617219" lon="17.7009742">
        <ele>17.9218</ele>
        <time>2012-04-12T18:05:32Z</time>
      </trkpt>
      <trkpt lat="59.8618335" lon="17.7017098">
        <ele>18.4023</ele>
        <time>2012-04-12T18:05:38Z</time>
      </trkpt>
      <trkpt lat="59.8620346" lon="17.7026329">
        <ele>19.3638</ele>
        <time>2012-04-12T18:05:46Z</time>
      </trkpt>
      <trkpt lat="59.862101" lon="17.7030744">
        <ele>19.8444</ele>
        <time>2012-04-12T18:05:50Z</time>
      </trkpt>
      <trkpt lat="59.8621094" lon="17.7035281">
        <ele>19.8444</ele>
        <time>2012-04-12T18:05:54Z</time>
      </trkpt>
      <trkpt lat="59.8620818" lon="17.7039495">
        <ele>19.3638</ele>
        <time>2012-04-12T18:05:58Z</time>
      </trkpt>
      <trkpt lat="59.8621511" lon="17.7041824">
        <ele>18.8831</ele>
        <time>2012-04-12T18:06:01Z</time>
      </trkpt>
      <trkpt lat="59.862202" lon="17.7042104">
        <ele>18.8831</ele>
        <time>2012-04-12T18:06:02Z</time>
      </trkpt>
      <trkpt lat="59.8627123" lon="17.7044042">
        <ele>17.9218</ele>
        <time>2012-04-12T18:06:11Z</time>
      </trkpt>
      <trkpt lat="59.8628873" lon="17.7044648">
        <ele>17.9218</ele>
        <time>2012-04-12T18:06:14Z</time>
      </trkpt>
      <trkpt lat="59.8631779" lon="17.7043834">
        <ele>17.9218</ele>
        <time>2012-04-12T18:06:19Z</time>
      </trkpt>
      <trkpt lat="59.8636156" lon="17.7038763">
        <ele>18.4023</ele>
        <time>2012-04-12T18:06:27Z</time>
      </trkpt>
      <trkpt lat="59.8638714" lon="17.7035313">
        <ele>18.4023</ele>
        <time>2012-04-12T18:06:32Z</time>
      </trkpt>
      <trkpt lat="59.8643052" lon="17.703051">
        <ele>17.9218</ele>
        <time>2012-04-12T18:06:41Z</time>
      </trkpt>
      <trkpt lat="59.864542" lon="17.7027748">
        <ele>17.9218</ele>
        <time>2012-04-12T18:06:47Z</time>
      </trkpt>
      <trkpt lat="59.8648137" lon="17.7024026">
        <ele>16.9604</ele>
        <time>2012-04-12T18:06:54Z</time>
      </trkpt>
      <trkpt lat="59.8651563" lon="17.7018509">
        <ele>17.4412</ele>
        <time>2012-04-12T18:07:03Z</time>
      </trkpt>
      <trkpt lat="59.8653844" lon="17.7014339">
        <ele>18.4023</ele>
        <time>2012-04-12T18:07:10Z</time>
      </trkpt>
      <trkpt lat="59.8655959" lon="17.7006847">
        <ele>20.8057</ele>
        <time>2012-04-12T18:07:20Z</time>
      </trkpt>
      <trkpt lat="59.8658017" lon="17.7001143">
        <ele>21.2864</ele>
        <time>2012-04-12T18:07:28Z</time>
      </trkpt>
      <trkpt lat="59.8660698" lon="17.6994881">
        <ele>21.2864</ele>
        <time>2012-04-12T18:07:36Z</time>
      </trkpt>
      <trkpt lat="59.8663379" lon="17.6990872">
        <ele>21.767</ele>
        <time>2012-04-12T18:07:42Z</time>
      </trkpt>
      <trkpt lat="59.8666914" lon="17.6986675">
        <ele>20.8057</ele>
        <time>2012-04-12T18:07:49Z</time>
      </trkpt>
      <trkpt lat="59.8670654" lon="17.6980532">
        <ele>18.8831</ele>
        <time>2012-04-12T18:07:56Z</time>
      </trkpt>
      <trkpt lat="59.8673655" lon="17.6977151">
        <ele>18.8831</ele>
        <time>2012-04-12T18:08:01Z</time>
      </trkpt>
      <trkpt lat="59.8676083" lon="17.6975804">
        <ele>18.8831</ele>
        <time>2012-04-12T18:08:05Z</time>
      </trkpt>
      <trkpt lat="59.8677809" lon="17.6974528">
        <ele>18.8831</ele>
        <time>2012-04-12T18:08:08Z</time>
      </trkpt>
      <trkpt lat="59.8682539" lon="17.6968825">
        <ele>19.3638</ele>
        <time>2012-04-12T18:08:17Z</time>
      </trkpt>
      <trkpt lat="59.8685911" lon="17.696589">
        <ele>19.3638</ele>
        <time>2012-04-12T18:08:23Z</time>
      </trkpt>
      <trkpt lat="59.8688732" lon="17.6963175">
        <ele>18.8831</ele>
        <time>2012-04-12T18:08:28Z</time>
      </trkpt>
      <trkpt lat="59.8692537" lon="17.6957664">
        <ele>16.9604</ele>
        <time>2012-04-12T18:08:35Z</time>
      </trkpt>
      <trkpt lat="59.869723" lon="17.69518">
        <ele>17.9218</ele>
        <time>2012-04-12T18:08:43Z</time>
      </trkpt>
      <trkpt lat="59.8702213" lon="17.6946647">
        <ele>18.4023</ele>
        <time>2012-04-12T18:08:52Z</time>
      </trkpt>
      <trkpt lat="59.8706518" lon="17.6941926">
        <ele>18.4023</ele>
        <time>2012-04-12T18:09:00Z</time>
      </trkpt>
      <trkpt lat="59.8710994" lon="17.6936182">
        <ele>18.8831</ele>
        <time>2012-04-12T18:09:09Z</time>
      </trkpt>
      <trkpt lat="59.8711466" lon="17.6935472">
        <ele>18.8831</ele>
        <time>2012-04-12T18:09:10Z</time>
      </trkpt>
      <trkpt lat="59.8714122" lon="17.6929746">
        <ele>18.4023</ele>
        <time>2012-04-12T18:09:16Z</time>
      </trkpt>
      <trkpt lat="59.8717277" lon="17.6923195">
        <ele>19.3638</ele>
        <time>2012-04-12T18:09:23Z</time>
      </trkpt>
      <trkpt lat="59.871955" lon="17.6917848">
        <ele>19.3638</ele>
        <time>2012-04-12T18:09:29Z</time>
      </trkpt>
      <trkpt lat="59.8722678" lon="17.6911585">
        <ele>19.3638</ele>
        <time>2012-04-12T18:09:37Z</time>
      </trkpt>
      <trkpt lat="59.8724981" lon="17.6905324">
        <ele>18.8831</ele>
        <time>2012-04-12T18:09:44Z</time>
      </trkpt>
      <trkpt lat="59.8725307" lon="17.690435">
        <ele>19.3638</ele>
        <time>2012-04-12T18:09:45Z</time>
      </trkpt>
      <trkpt lat="59.8726337" lon="17.6900386">
        <ele>19.8444</ele>
        <time>2012-04-12T18:09:49Z</time>
      </trkpt>
      <trkpt lat="59.8729279" lon="17.689299">
        <ele>19.8444</ele>
        <time>2012-04-12T18:09:58Z</time>
      </trkpt>
      <trkpt lat="59.8732173" lon="17.6887529">
        <ele>19.8444</ele>
        <time>2012-04-12T18:10:05Z</time>
      </trkpt>
      <trkpt lat="59.873494" lon="17.688454">
        <ele>19.3638</ele>
        <time>2012-04-12T18:10:11Z</time>
      </trkpt>
      <trkpt lat="59.8736946" lon="17.6882552">
        <ele>18.8831</ele>
        <time>2012-04-12T18:10:16Z</time>
      </trkpt>
      <trkpt lat="59.8738831" lon="17.6880573">
        <ele>19.8444</ele>
        <time>2012-04-12T18:10:21Z</time>
      </trkpt>
      <trkpt lat="59.8739873" lon="17.6881815">
        <ele>20.325</ele>
        <time>2012-04-12T18:10:25Z</time>
      </trkpt>
      <trkpt lat="59.8741464" lon="17.6888245">
        <ele>19.8444</ele>
        <time>2012-04-12T18:10:33Z</time>
      </trkpt>
      <trkpt lat="59.8743502" lon="17.689629">
        <ele>19.8444</ele>
        <time>2012-04-12T18:10:41Z</time>
      </trkpt>
      <trkpt lat="59.8746307" lon="17.690579">
        <ele>20.8057</ele>
        <time>2012-04-12T18:10:50Z</time>
      </trkpt>
      <trkpt lat="59.8750487" lon="17.6916451">
        <ele>21.767</ele>
        <time>2012-04-12T18:11:01Z</time>
      </trkpt>
      <trkpt lat="59.8754702" lon="17.6926158">
        <ele>21.767</ele>
        <time>2012-04-12T18:11:11Z</time>
      </trkpt>
      <trkpt lat="59.8758341" lon="17.6934906">
        <ele>19.8444</ele>
        <time>2012-04-12T18:11:19Z</time>
      </trkpt>
      <trkpt lat="59.8761958" lon="17.6944201">
        <ele>16.9604</ele>
        <time>2012-04-12T18:11:26Z</time>
      </trkpt>
      <trkpt lat="59.8766352" lon="17.695742">
        <ele>13.5958</ele>
        <time>2012-04-12T18:11:35Z</time>
      </trkpt>
      <trkpt lat="59.8768452" lon="17.6964632">
        <ele>15.999</ele>
        <time>2012-04-12T18:11:41Z</time>
      </trkpt>
      <trkpt lat="59.8770021" lon="17.6970327">
        <ele>17.9218</ele>
        <time>2012-04-12T18:11:47Z</time>
      </trkpt>
      <trkpt lat="59.8771612" lon="17.6976642">
        <ele>19.8444</ele>
        <time>2012-04-12T18:11:55Z</time>
      </trkpt>
      <trkpt lat="59.877331" lon="17.6983705">
        <ele>21.2864</ele>
        <time>2012-04-12T18:12:04Z</time>
      </trkpt>
      <trkpt lat="59.8775282" lon="17.6991028">
        <ele>21.2864</ele>
        <time>2012-04-12T18:12:12Z</time>
      </trkpt>
      <trkpt lat="59.877812" lon="17.700044">
        <ele>21.2864</ele>
        <time>2012-04-12T18:12:21Z</time>
      </trkpt>
      <trkpt lat="59.8781798" lon="17.7010842">
        <ele>21.2864</ele>
        <time>2012-04-12T18:12:31Z</time>
      </trkpt>
      <trkpt lat="59.8785503" lon="17.7020435">
        <ele>20.8057</ele>
        <time>2012-04-12T18:12:40Z</time>
      </trkpt>
      <trkpt lat="59.8790353" lon="17.7034085">
        <ele>20.325</ele>
        <time>2012-04-12T18:12:52Z</time>
      </trkpt>
      <trkpt lat="59.8793321" lon="17.7041859">
        <ele>20.325</ele>
        <time>2012-04-12T18:12:59Z</time>
      </trkpt>
      <trkpt lat="59.8797049" lon="17.7053567">
        <ele>20.325</ele>
        <time>2012-04-12T18:13:09Z</time>
      </trkpt>
      <trkpt lat="59.8801127" lon="17.7067834">
        <ele>19.8444</ele>
        <time>2012-04-12T18:13:21Z</time>
      </trkpt>
      <trkpt lat="59.880313" lon="17.7078852">
        <ele>19.8444</ele>
        <time>2012-04-12T18:13:30Z</time>
      </trkpt>
      <trkpt lat="59.8805162" lon="17.7088112">
        <ele>19.8444</ele>
        <time>2012-04-12T18:13:38Z</time>
      </trkpt>
      <trkpt lat="59.8807357" lon="17.709462">
        <ele>20.8057</ele>
        <time>2012-04-12T18:13:45Z</time>
      </trkpt>
      <trkpt lat="59.8808887" lon="17.7097747">
        <ele>20.325</ele>
        <time>2012-04-12T18:13:49Z</time>
      </trkpt>
      <trkpt lat="59.8811161" lon="17.7104867">
        <ele>18.8831</ele>
        <time>2012-04-12T18:13:56Z</time>
      </trkpt>
      <trkpt lat="59.881429" lon="17.7113593">
        <ele>18.4023</ele>
        <time>2012-04-12T18:14:04Z</time>
      </trkpt>
      <trkpt lat="59.8816148" lon="17.7120838">
        <ele>18.8831</ele>
        <time>2012-04-12T18:14:10Z</time>
      </trkpt>
      <trkpt lat="59.8817869" lon="17.713236">
        <ele>18.8831</ele>
        <time>2012-04-12T18:14:19Z</time>
      </trkpt>
      <trkpt lat="59.8819013" lon="17.7141508">
        <ele>18.8831</ele>
        <time>2012-04-12T18:14:26Z</time>
      </trkpt>
      <trkpt lat="59.8821542" lon="17.7159694">
        <ele>18.8831</ele>
        <time>2012-04-12T18:14:40Z</time>
      </trkpt>
      <trkpt lat="59.8823241" lon="17.7174798">
        <ele>19.3638</ele>
        <time>2012-04-12T18:14:52Z</time>
      </trkpt>
      <trkpt lat="59.8823503" lon="17.7181404">
        <ele>19.3638</ele>
        <time>2012-04-12T18:14:57Z</time>
      </trkpt>
      <trkpt lat="59.8824943" lon="17.7190083">
        <ele>19.3638</ele>
        <time>2012-04-12T18:15:04Z</time>
      </trkpt>
      <trkpt lat="59.8828049" lon="17.7204339">
        <ele>19.3638</ele>
        <time>2012-04-12T18:15:16Z</time>
      </trkpt>
      <trkpt lat="59.8828267" lon="17.7205547">
        <ele>19.3638</ele>
        <time>2012-04-12T18:15:17Z</time>
      </trkpt>
      <trkpt lat="59.8827902" lon="17.7210322">
        <ele>19.3638</ele>
        <time>2012-04-12T18:15:21Z</time>
      </trkpt>
      <trkpt lat="59.8826873" lon="17.7211876">
        <ele>18.8831</ele>
        <time>2012-04-12T18:15:23Z</time>
      </trkpt>
      <trkpt lat="59.8820578" lon="17.7218834">
        <ele>18.8831</ele>
        <time>2012-04-12T18:15:34Z</time>
      </trkpt>
      <trkpt lat="59.8817615" lon="17.7224711">
        <ele>18.4023</ele>
        <time>2012-04-12T18:15:40Z</time>
      </trkpt>
      <trkpt lat="59.8815154" lon="17.7230003">
        <ele>18.8831</ele>
        <time>2012-04-12T18:15:45Z</time>
      </trkpt>
      <trkpt lat="59.8814109" lon="17.7234828">
        <ele>18.8831</ele>
        <time>2012-04-12T18:15:49Z</time>
      </trkpt>
      <trkpt lat="59.8814513" lon="17.7238594">
        <ele>18.8831</ele>
        <time>2012-04-12T18:15:52Z</time>
      </trkpt>
      <trkpt lat="59.8814775" lon="17.7239803">
        <ele>18.8831</ele>
        <time>2012-04-12T18:15:53Z</time>
      </trkpt>
      <trkpt lat="59.8817775" lon="17.7251275">
        <ele>19.3638</ele>
        <time>2012-04-12T18:16:03Z</time>
      </trkpt>
      <trkpt lat="59.882134" lon="17.7262823">
        <ele>20.8057</ele>
        <time>2012-04-12T18:16:14Z</time>
      </trkpt>
      <trkpt lat="59.8824866" lon="17.7274614">
        <ele>21.2864</ele>
        <time>2012-04-12T18:16:25Z</time>
      </trkpt>
      <trkpt lat="59.8827145" lon="17.7285787">
        <ele>21.2864</ele>
        <time>2012-04-12T18:16:34Z</time>
      </trkpt>
      <trkpt lat="59.8828637" lon="17.7296379">
        <ele>20.8057</ele>
        <time>2012-04-12T18:16:42Z</time>
      </trkpt>
      <trkpt lat="59.8828044" lon="17.7302082">
        <ele>22.7283</ele>
        <time>2012-04-12T18:16:47Z</time>
      </trkpt>
      <trkpt lat="59.8827136" lon="17.7304526">
        <ele>23.209</ele>
        <time>2012-04-12T18:16:50Z</time>
      </trkpt>
      <trkpt lat="59.8826822" lon="17.7309021">
        <ele>23.6896</ele>
        <time>2012-04-12T18:16:55Z</time>
      </trkpt>
      <trkpt lat="59.8826954" lon="17.7309991">
        <ele>23.6896</ele>
        <time>2012-04-12T18:16:56Z</time>
      </trkpt>
      <trkpt lat="59.8828229" lon="17.7315171">
        <ele>22.2476</ele>
        <time>2012-04-12T18:17:01Z</time>
      </trkpt>
      <trkpt lat="59.8831307" lon="17.7321957">
        <ele>19.8444</ele>
        <time>2012-04-12T18:17:07Z</time>
      </trkpt>
      <trkpt lat="59.8833808" lon="17.7329449">
        <ele>18.8831</ele>
        <time>2012-04-12T18:17:13Z</time>
      </trkpt>
      <trkpt lat="59.8835094" lon="17.7337054">
        <ele>18.4023</ele>
        <time>2012-04-12T18:17:19Z</time>
      </trkpt>
      <trkpt lat="59.8835539" lon="17.7340722">
        <ele>18.4023</ele>
        <time>2012-04-12T18:17:22Z</time>
      </trkpt>
      <trkpt lat="59.8835146" lon="17.7346845">
        <ele>18.4023</ele>
        <time>2012-04-12T18:17:27Z</time>
      </trkpt>
      <trkpt lat="59.8834495" lon="17.7348961">
        <ele>18.4023</ele>
        <time>2012-04-12T18:17:29Z</time>
      </trkpt>
      <trkpt lat="59.8833756" lon="17.7350937">
        <ele>18.8831</ele>
        <time>2012-04-12T18:17:31Z</time>
      </trkpt>
      <trkpt lat="59.8833098" lon="17.7355464">
        <ele>19.3638</ele>
        <time>2012-04-12T18:17:35Z</time>
      </trkpt>
      <trkpt lat="59.8833312" lon="17.7357737">
        <ele>19.3638</ele>
        <time>2012-04-12T18:17:37Z</time>
      </trkpt>
      <trkpt lat="59.8834941" lon="17.7365216">
        <ele>21.767</ele>
        <time>2012-04-12T18:17:45Z</time>
      </trkpt>
      <trkpt lat="59.8836773" lon="17.7371127">
        <ele>22.7283</ele>
        <time>2012-04-12T18:17:53Z</time>
      </trkpt>
      <trkpt lat="59.8838258" lon="17.7377453">
        <ele>23.209</ele>
        <time>2012-04-12T18:18:00Z</time>
      </trkpt>
      <trkpt lat="59.8839325" lon="17.7388913">
        <ele>23.6896</ele>
        <time>2012-04-12T18:18:11Z</time>
      </trkpt>
      <trkpt lat="59.8840046" lon="17.739545">
        <ele>24.1703</ele>
        <time>2012-04-12T18:18:17Z</time>
      </trkpt>
      <trkpt lat="59.8841465" lon="17.7398282">
        <ele>24.1703</ele>
        <time>2012-04-12T18:18:21Z</time>
      </trkpt>
      <trkpt lat="59.8843129" lon="17.7397925">
        <ele>24.1703</ele>
        <time>2012-04-12T18:18:24Z</time>
      </trkpt>
      <trkpt lat="59.8848327" lon="17.7394932">
        <ele>21.2864</ele>
        <time>2012-04-12T18:18:33Z</time>
      </trkpt>
      <trkpt lat="59.8849624" lon="17.7394221">
        <ele>20.8057</ele>
        <time>2012-04-12T18:18:35Z</time>
      </trkpt>
      <trkpt lat="59.885216" lon="17.7395553">
        <ele>18.8831</ele>
        <time>2012-04-12T18:18:39Z</time>
      </trkpt>
      <trkpt lat="59.885284" lon="17.7397918">
        <ele>17.9218</ele>
        <time>2012-04-12T18:18:41Z</time>
      </trkpt>
      <trkpt lat="59.885414" lon="17.7405642">
        <ele>16.9604</ele>
        <time>2012-04-12T18:18:48Z</time>
      </trkpt>
      <trkpt lat="59.8854616" lon="17.7407691">
        <ele>16.9604</ele>
        <time>2012-04-12T18:18:50Z</time>
      </trkpt>
      <trkpt lat="59.8856763" lon="17.7412081">
        <ele>15.999</ele>
        <time>2012-04-12T18:18:55Z</time>
      </trkpt>
      <trkpt lat="59.8857367" lon="17.7412709">
        <ele>15.5184</ele>
        <time>2012-04-12T18:18:56Z</time>
      </trkpt>
      <trkpt lat="59.8862072" lon="17.741744">
        <ele>13.5958</ele>
        <time>2012-04-12T18:19:03Z</time>
      </trkpt>
      <trkpt lat="59.8867054" lon="17.7423557">
        <ele>13.5958</ele>
        <time>2012-04-12T18:19:11Z</time>
      </trkpt>
      <trkpt lat="59.8871116" lon="17.7429757">
        <ele>13.5958</ele>
        <time>2012-04-12T18:19:19Z</time>
      </trkpt>
      <trkpt lat="59.8874651" lon="17.7435658">
        <ele>14.0764</ele>
        <time>2012-04-12T18:19:26Z</time>
      </trkpt>
      <trkpt lat="59.8878832" lon="17.7442676">
        <ele>15.0377</ele>
        <time>2012-04-12T18:19:35Z</time>
      </trkpt>
      <trkpt lat="59.8883831" lon="17.7451134">
        <ele>16.4797</ele>
        <time>2012-04-12T18:19:47Z</time>
      </trkpt>
      <trkpt lat="59.8887827" lon="17.7457962">
        <ele>17.9218</ele>
        <time>2012-04-12T18:19:57Z</time>
      </trkpt>
      <trkpt lat="59.8891692" lon="17.7464568">
        <ele>18.8831</ele>
        <time>2012-04-12T18:20:07Z</time>
      </trkpt>
      <trkpt lat="59.8896556" lon="17.7472893">
        <ele>19.8444</ele>
        <time>2012-04-12T18:20:20Z</time>
      </trkpt>
      <trkpt lat="59.8900699" lon="17.7480026">
        <ele>22.2476</ele>
        <time>2012-04-12T18:20:31Z</time>
      </trkpt>
      <trkpt lat="59.8903294" lon="17.7484212">
        <ele>23.6896</ele>
        <time>2012-04-12T18:20:39Z</time>
      </trkpt>
      <trkpt lat="59.8903912" lon="17.7485044">
        <ele>23.6896</ele>
        <time>2012-04-12T18:20:41Z</time>
      </trkpt>
      <trkpt lat="59.8905823" lon="17.748548">
        <ele>23.6896</ele>
        <time>2012-04-12T18:20:46Z</time>
      </trkpt>
      <trkpt lat="59.8907148" lon="17.7484177">
        <ele>23.6896</ele>
        <time>2012-04-12T18:20:49Z</time>
      </trkpt>
      <trkpt lat="59.8910883" lon="17.7479282">
        <ele>22.2476</ele>
        <time>2012-04-12T18:20:57Z</time>
      </trkpt>
      <trkpt lat="59.8915634" lon="17.7472954">
        <ele>23.209</ele>
        <time>2012-04-12T18:21:08Z</time>
      </trkpt>
      <trkpt lat="59.8920513" lon="17.7465811">
        <ele>23.6896</ele>
        <time>2012-04-12T18:21:19Z</time>
      </trkpt>
      <trkpt lat="59.8920973" lon="17.7465146">
        <ele>23.6896</ele>
        <time>2012-04-12T18:21:20Z</time>
      </trkpt>
      <trkpt lat="59.8923449" lon="17.7459492">
        <ele>24.1703</ele>
        <time>2012-04-12T18:21:27Z</time>
      </trkpt>
      <trkpt lat="59.8926646" lon="17.7449539">
        <ele>25.1317</ele>
        <time>2012-04-12T18:21:38Z</time>
      </trkpt>
      <trkpt lat="59.892862" lon="17.7443387">
        <ele>27.0543</ele>
        <time>2012-04-12T18:21:46Z</time>
      </trkpt>
      <trkpt lat="59.8929951" lon="17.7439397">
        <ele>28.0155</ele>
        <time>2012-04-12T18:21:53Z</time>
      </trkpt>
      <trkpt lat="59.8931174" lon="17.7435244">
        <ele>28.4962</ele>
        <time>2012-04-12T18:22:00Z</time>
      </trkpt>
      <trkpt lat="59.8932637" lon="17.7430525">
        <ele>28.0155</ele>
        <time>2012-04-12T18:22:06Z</time>
      </trkpt>
      <trkpt lat="59.8934747" lon="17.7423904">
        <ele>26.5736</ele>
        <time>2012-04-12T18:22:13Z</time>
      </trkpt>
      <trkpt lat="59.8937496" lon="17.7415558">
        <ele>24.651</ele>
        <time>2012-04-12T18:22:21Z</time>
      </trkpt>
      <trkpt lat="59.8939497" lon="17.7409105">
        <ele>22.7283</ele>
        <time>2012-04-12T18:22:28Z</time>
      </trkpt>
      <trkpt lat="59.8941373" lon="17.7402725">
        <ele>22.7283</ele>
        <time>2012-04-12T18:22:34Z</time>
      </trkpt>
      <trkpt lat="59.8941892" lon="17.7400909">
        <ele>22.7283</ele>
        <time>2012-04-12T18:22:36Z</time>
      </trkpt>
      <trkpt lat="59.8942873" lon="17.7398519">
        <ele>22.7283</ele>
        <time>2012-04-12T18:22:39Z</time>
      </trkpt>
      <trkpt lat="59.8944058" lon="17.7396504">
        <ele>22.2476</ele>
        <time>2012-04-12T18:22:42Z</time>
      </trkpt>
      <trkpt lat="59.8947796" lon="17.7393428">
        <ele>19.8444</ele>
        <time>2012-04-12T18:22:49Z</time>
      </trkpt>
      <trkpt lat="59.8952085" lon="17.7391837">
        <ele>18.4023</ele>
        <time>2012-04-12T18:22:56Z</time>
      </trkpt>
      <trkpt lat="59.8956121" lon="17.7390962">
        <ele>18.8831</ele>
        <time>2012-04-12T18:23:03Z</time>
      </trkpt>
      <trkpt lat="59.8960907" lon="17.7389435">
        <ele>20.8057</ele>
        <time>2012-04-12T18:23:11Z</time>
      </trkpt>
      <trkpt lat="59.8964011" lon="17.7387952">
        <ele>23.209</ele>
        <time>2012-04-12T18:23:17Z</time>
      </trkpt>
      <trkpt lat="59.8965391" lon="17.738514">
        <ele>23.209</ele>
        <time>2012-04-12T18:23:21Z</time>
      </trkpt>
      <trkpt lat="59.8967427" lon="17.7377081">
        <ele>23.209</ele>
        <time>2012-04-12T18:23:29Z</time>
      </trkpt>
      <trkpt lat="59.8970535" lon="17.7368145">
        <ele>22.7283</ele>
        <time>2012-04-12T18:23:38Z</time>
      </trkpt>
      <trkpt lat="59.8971712" lon="17.7361799">
        <ele>22.7283</ele>
        <time>2012-04-12T18:23:43Z</time>
      </trkpt>
      <trkpt lat="59.8971973" lon="17.73542">
        <ele>24.1703</ele>
        <time>2012-04-12T18:23:49Z</time>
      </trkpt>
      <trkpt lat="59.8972406" lon="17.7347807">
        <ele>25.1317</ele>
        <time>2012-04-12T18:23:55Z</time>
      </trkpt>
      <trkpt lat="59.8973851" lon="17.7341762">
        <ele>26.0929</ele>
        <time>2012-04-12T18:24:02Z</time>
      </trkpt>
      <trkpt lat="59.8974485" lon="17.733911">
        <ele>26.0929</ele>
        <time>2012-04-12T18:24:05Z</time>
      </trkpt>
      <trkpt lat="59.8975027" lon="17.7335075">
        <ele>26.0929</ele>
        <time>2012-04-12T18:24:09Z</time>
      </trkpt>
      <trkpt lat="59.8975729" lon="17.7326849">
        <ele>26.0929</ele>
        <time>2012-04-12T18:24:16Z</time>
      </trkpt>
      <trkpt lat="59.897615" lon="17.7315183">
        <ele>26.5736</ele>
        <time>2012-04-12T18:24:25Z</time>
      </trkpt>
      <trkpt lat="59.8976105" lon="17.7311547">
        <ele>27.0543</ele>
        <time>2012-04-12T18:24:28Z</time>
      </trkpt>
      <trkpt lat="59.8975256" lon="17.7304704">
        <ele>26.0929</ele>
        <time>2012-04-12T18:24:33Z</time>
      </trkpt>
      <trkpt lat="59.8975116" lon="17.730316">
        <ele>25.6123</ele>
        <time>2012-04-12T18:24:34Z</time>
      </trkpt>
      <trkpt lat="59.8975516" lon="17.7294798">
        <ele>22.2476</ele>
        <time>2012-04-12T18:24:39Z</time>
      </trkpt>
      <trkpt lat="59.8976889" lon="17.7287055">
        <ele>20.8057</ele>
        <time>2012-04-12T18:24:44Z</time>
      </trkpt>
      <trkpt lat="59.8978665" lon="17.7279404">
        <ele>20.325</ele>
        <time>2012-04-12T18:24:50Z</time>
      </trkpt>
      <trkpt lat="59.8981204" lon="17.7272568">
        <ele>20.325</ele>
        <time>2012-04-12T18:24:57Z</time>
      </trkpt>
      <trkpt lat="59.8983696" lon="17.7264189">
        <ele>20.325</ele>
        <time>2012-04-12T18:25:05Z</time>
      </trkpt>
      <trkpt lat="59.8985715" lon="17.7254806">
        <ele>20.8057</ele>
        <time>2012-04-12T18:25:14Z</time>
      </trkpt>
      <trkpt lat="59.8987731" lon="17.7242491">
        <ele>21.767</ele>
        <time>2012-04-12T18:25:26Z</time>
      </trkpt>
      <trkpt lat="59.8989362" lon="17.7232443">
        <ele>23.209</ele>
        <time>2012-04-12T18:25:36Z</time>
      </trkpt>
      <trkpt lat="59.8990998" lon="17.7222144">
        <ele>24.1703</ele>
        <time>2012-04-12T18:25:46Z</time>
      </trkpt>
      <trkpt lat="59.8992735" lon="17.721097">
        <ele>24.651</ele>
        <time>2012-04-12T18:25:56Z</time>
      </trkpt>
      <trkpt lat="59.8993561" lon="17.7205006">
        <ele>25.6123</ele>
        <time>2012-04-12T18:38:47Z</time>
      </trkpt>
      <trkpt lat="59.8993661" lon="17.7204474">
        <ele>25.6123</ele>
        <time>2012-04-12T18:38:48Z</time>
      </trkpt>
      <trkpt lat="59.8994473" lon="17.7200629">
        <ele>25.6123</ele>
        <time>2012-04-12T18:38:53Z</time>
      </trkpt>
      <trkpt lat="59.8995711" lon="17.7195064">
        <ele>25.6123</ele>
        <time>2012-04-12T18:38:59Z</time>
      </trkpt>
      <trkpt lat="59.8996128" lon="17.7193188">
        <ele>25.6123</ele>
        <time>2012-04-12T18:39:01Z</time>
      </trkpt>
      <trkpt lat="59.8998345" lon="17.7186153">
        <ele>24.1703</ele>
        <time>2012-04-12T18:39:09Z</time>
      </trkpt>
      <trkpt lat="59.8999846" lon="17.7181533">
        <ele>22.7283</ele>
        <time>2012-04-12T18:39:15Z</time>
      </trkpt>
      <trkpt lat="59.9000747" lon="17.71766">
        <ele>23.209</ele>
        <time>2012-04-12T18:39:20Z</time>
      </trkpt>
      <trkpt lat="59.9001289" lon="17.7167077">
        <ele>23.209</ele>
        <time>2012-04-12T18:39:28Z</time>
      </trkpt>
      <trkpt lat="59.9002056" lon="17.7158527">
        <ele>24.1703</ele>
        <time>2012-04-12T18:39:36Z</time>
      </trkpt>
      <trkpt lat="59.9003545" lon="17.7151185">
        <ele>24.1703</ele>
        <time>2012-04-12T18:39:43Z</time>
      </trkpt>
      <trkpt lat="59.900577" lon="17.7143273">
        <ele>24.1703</ele>
        <time>2012-04-12T18:39:51Z</time>
      </trkpt>
      <trkpt lat="59.9008269" lon="17.7135636">
        <ele>24.1703</ele>
        <time>2012-04-12T18:39:59Z</time>
      </trkpt>
      <trkpt lat="59.9009809" lon="17.7130867">
        <ele>24.651</ele>
        <time>2012-04-12T18:40:05Z</time>
      </trkpt>
      <trkpt lat="59.9010241" lon="17.7129721">
        <ele>25.1317</ele>
        <time>2012-04-12T18:40:07Z</time>
      </trkpt>
      <trkpt lat="59.9010774" lon="17.7127907">
        <ele>25.1317</ele>
        <time>2012-04-12T18:40:10Z</time>
      </trkpt>
      <trkpt lat="59.9011938" lon="17.7127493">
        <ele>24.651</ele>
        <time>2012-04-12T18:40:14Z</time>
      </trkpt>
      <trkpt lat="59.9012696" lon="17.7128532">
        <ele>24.651</ele>
        <time>2012-04-12T18:40:16Z</time>
      </trkpt>
      <trkpt lat="59.9016339" lon="17.7132932">
        <ele>24.651</ele>
        <time>2012-04-12T18:40:24Z</time>
      </trkpt>
      <trkpt lat="59.9019986" lon="17.7137015">
        <ele>25.1317</ele>
        <time>2012-04-12T18:40:32Z</time>
      </trkpt>
      <trkpt lat="59.9024306" lon="17.7141967">
        <ele>25.6123</ele>
        <time>2012-04-12T18:40:42Z</time>
      </trkpt>
      <trkpt lat="59.9027732" lon="17.7146063">
        <ele>26.0929</ele>
        <time>2012-04-12T18:40:50Z</time>
      </trkpt>
      <trkpt lat="59.9031129" lon="17.7150317">
        <ele>26.5736</ele>
        <time>2012-04-12T18:40:58Z</time>
      </trkpt>
      <trkpt lat="59.9033059" lon="17.7152892">
        <ele>27.0543</ele>
        <time>2012-04-12T18:41:03Z</time>
      </trkpt>
      <trkpt lat="59.9035293" lon="17.7157387">
        <ele>27.5349</ele>
        <time>2012-04-12T18:41:10Z</time>
      </trkpt>
      <trkpt lat="59.9036765" lon="17.7160671">
        <ele>27.0543</ele>
        <time>2012-04-12T18:41:15Z</time>
      </trkpt>
      <trkpt lat="59.9037635" lon="17.7164246">
        <ele>26.5736</ele>
        <time>2012-04-12T18:41:19Z</time>
      </trkpt>
      <trkpt lat="59.9039457" lon="17.716581">
        <ele>27.5349</ele>
        <time>2012-04-12T18:41:23Z</time>
      </trkpt>
      <trkpt lat="59.9040641" lon="17.7167354">
        <ele>28.4962</ele>
        <time>2012-04-12T18:41:26Z</time>
      </trkpt>
      <trkpt lat="59.9041727" lon="17.7169051">
        <ele>29.4575</ele>
        <time>2012-04-12T18:41:29Z</time>
      </trkpt>
      <trkpt lat="59.904296" lon="17.7169804">
        <ele>29.9381</ele>
        <time>2012-04-12T18:41:32Z</time>
      </trkpt>
      <trkpt lat="59.9044183" lon="17.7170581">
        <ele>30.8995</ele>
        <time>2012-04-12T18:41:35Z</time>
      </trkpt>
      <trkpt lat="59.9045093" lon="17.7171799">
        <ele>30.4188</ele>
        <time>2012-04-12T18:41:38Z</time>
      </trkpt>
      <trkpt lat="59.9047112" lon="17.7175118">
        <ele>29.9381</ele>
        <time>2012-04-12T18:41:45Z</time>
      </trkpt>
      <trkpt lat="59.904931" lon="17.7178871">
        <ele>27.0543</ele>
        <time>2012-04-12T18:41:52Z</time>
      </trkpt>
      <trkpt lat="59.9052467" lon="17.7183536">
        <ele>25.1317</ele>
        <time>2012-04-12T18:42:00Z</time>
      </trkpt>
      <trkpt lat="59.9055657" lon="17.7189048">
        <ele>25.1317</ele>
        <time>2012-04-12T18:42:09Z</time>
      </trkpt>
      <trkpt lat="59.9056694" lon="17.719075">
        <ele>25.1317</ele>
        <time>2012-04-12T18:42:12Z</time>
      </trkpt>
      <trkpt lat="59.9059132" lon="17.7194009">
        <ele>28.0155</ele>
        <time>2012-04-12T18:42:18Z</time>
      </trkpt>
      <trkpt lat="59.9059563" lon="17.719426">
        <ele>28.9769</ele>
        <time>2012-04-12T18:42:19Z</time>
      </trkpt>
      <trkpt lat="59.9060593" lon="17.7194771">
        <ele>30.4188</ele>
        <time>2012-04-12T18:42:22Z</time>
      </trkpt>
      <trkpt lat="59.9062313" lon="17.719732">
        <ele>31.8607</ele>
        <time>2012-04-12T18:42:28Z</time>
      </trkpt>
      <trkpt lat="59.9065369" lon="17.72022">
        <ele>32.3416</ele>
        <time>2012-04-12T18:42:36Z</time>
      </trkpt>
      <trkpt lat="59.9068796" lon="17.7207484">
        <ele>33.3029</ele>
        <time>2012-04-12T18:42:44Z</time>
      </trkpt>
      <trkpt lat="59.9072217" lon="17.7214584">
        <ele>35.2255</ele>
        <time>2012-04-12T18:42:53Z</time>
      </trkpt>
      <trkpt lat="59.9075677" lon="17.7223449">
        <ele>36.1868</ele>
        <time>2012-04-12T18:43:03Z</time>
      </trkpt>
      <trkpt lat="59.9078994" lon="17.7234877">
        <ele>36.6675</ele>
        <time>2012-04-12T18:43:14Z</time>
      </trkpt>
      <trkpt lat="59.9081729" lon="17.7246133">
        <ele>36.6675</ele>
        <time>2012-04-12T18:43:24Z</time>
      </trkpt>
      <trkpt lat="59.9084923" lon="17.7259202">
        <ele>36.6675</ele>
        <time>2012-04-12T18:43:35Z</time>
      </trkpt>
      <trkpt lat="59.9087541" lon="17.7270726">
        <ele>36.1868</ele>
        <time>2012-04-12T18:43:44Z</time>
      </trkpt>
      <trkpt lat="59.9089541" lon="17.7280368">
        <ele>35.7061</ele>
        <time>2012-04-12T18:43:52Z</time>
      </trkpt>
      <trkpt lat="59.9092565" lon="17.7293413">
        <ele>35.7061</ele>
        <time>2012-04-12T18:44:03Z</time>
      </trkpt>
      <trkpt lat="59.9095279" lon="17.7304654">
        <ele>35.7061</ele>
        <time>2012-04-12T18:44:13Z</time>
      </trkpt>
      <trkpt lat="59.9097487" lon="17.7313888">
        <ele>34.7449</ele>
        <time>2012-04-12T18:44:22Z</time>
      </trkpt>
      <trkpt lat="59.9099867" lon="17.7323679">
        <ele>33.3029</ele>
        <time>2012-04-12T18:44:32Z</time>
      </trkpt>
      <trkpt lat="59.9102277" lon="17.7333175">
        <ele>35.2255</ele>
        <time>2012-04-12T18:44:41Z</time>
      </trkpt>
      <trkpt lat="59.9103951" lon="17.7339261">
        <ele>35.2255</ele>
        <time>2012-04-12T18:44:47Z</time>
      </trkpt>
      <trkpt lat="59.9106378" lon="17.7348428">
        <ele>36.1868</ele>
        <time>2012-04-12T18:44:56Z</time>
      </trkpt>
      <trkpt lat="59.9109885" lon="17.7360696">
        <ele>37.6287</ele>
        <time>2012-04-12T18:45:08Z</time>
      </trkpt>
      <trkpt lat="59.9111969" lon="17.7368856">
        <ele>38.5901</ele>
        <time>2012-04-12T18:45:16Z</time>
      </trkpt>
      <trkpt lat="59.9115218" lon="17.7382457">
        <ele>40.0321</ele>
        <time>2012-04-12T18:45:30Z</time>
      </trkpt>
      <trkpt lat="59.9116481" lon="17.73877">
        <ele>42.4354</ele>
        <time>2012-04-12T18:45:37Z</time>
      </trkpt>
      <trkpt lat="59.9118149" lon="17.7393879">
        <ele>43.8773</ele>
        <time>2012-04-12T18:45:46Z</time>
      </trkpt>
      <trkpt lat="59.9119594" lon="17.7399827">
        <ele>44.358</ele>
        <time>2012-04-12T18:45:53Z</time>
      </trkpt>
      <trkpt lat="59.9121483" lon="17.7404805">
        <ele>44.358</ele>
        <time>2012-04-12T18:45:59Z</time>
      </trkpt>
      <trkpt lat="59.9125415" lon="17.7412001">
        <ele>44.358</ele>
        <time>2012-04-12T18:46:08Z</time>
      </trkpt>
      <trkpt lat="59.9128509" lon="17.7417989">
        <ele>42.4354</ele>
        <time>2012-04-12T18:46:14Z</time>
      </trkpt>
      <trkpt lat="59.9132907" lon="17.7427918">
        <ele>40.9934</ele>
        <time>2012-04-12T18:46:22Z</time>
      </trkpt>
      <trkpt lat="59.9135692" lon="17.7435518">
        <ele>40.9934</ele>
        <time>2012-04-12T18:46:28Z</time>
      </trkpt>
      <trkpt lat="59.9138953" lon="17.7445036">
        <ele>41.474</ele>
        <time>2012-04-12T18:46:36Z</time>
      </trkpt>
      <trkpt lat="59.9142984" lon="17.7458075">
        <ele>41.474</ele>
        <time>2012-04-12T18:46:47Z</time>
      </trkpt>
      <trkpt lat="59.9146784" lon="17.7469742">
        <ele>41.9547</ele>
        <time>2012-04-12T18:46:57Z</time>
      </trkpt>
      <trkpt lat="59.9149917" lon="17.7479667">
        <ele>42.916</ele>
        <time>2012-04-12T18:47:06Z</time>
      </trkpt>
      <trkpt lat="59.9153783" lon="17.7492227">
        <ele>43.8773</ele>
        <time>2012-04-12T18:47:18Z</time>
      </trkpt>
      <trkpt lat="59.9157285" lon="17.7503574">
        <ele>42.916</ele>
        <time>2012-04-12T18:47:29Z</time>
      </trkpt>
      <trkpt lat="59.9161109" lon="17.751581">
        <ele>42.4354</ele>
        <time>2012-04-12T18:47:40Z</time>
      </trkpt>
      <trkpt lat="59.9165774" lon="17.7530603">
        <ele>42.4354</ele>
        <time>2012-04-12T18:47:53Z</time>
      </trkpt>
      <trkpt lat="59.9169203" lon="17.7541467">
        <ele>40.9934</ele>
        <time>2012-04-12T18:48:03Z</time>
      </trkpt>
      <trkpt lat="59.9173484" lon="17.7553146">
        <ele>40.9934</ele>
        <time>2012-04-12T18:48:14Z</time>
      </trkpt>
      <trkpt lat="59.9178262" lon="17.7563946">
        <ele>42.916</ele>
        <time>2012-04-12T18:48:25Z</time>
      </trkpt>
      <trkpt lat="59.9183342" lon="17.7573881">
        <ele>44.8386</ele>
        <time>2012-04-12T18:48:36Z</time>
      </trkpt>
      <trkpt lat="59.9188579" lon="17.7582643">
        <ele>45.7999</ele>
        <time>2012-04-12T18:48:46Z</time>
      </trkpt>
      <trkpt lat="59.9194479" lon="17.7592429">
        <ele>46.2806</ele>
        <time>2012-04-12T18:48:57Z</time>
      </trkpt>
      <trkpt lat="59.9200392" lon="17.7602206">
        <ele>46.2806</ele>
        <time>2012-04-12T18:49:08Z</time>
      </trkpt>
      <trkpt lat="59.9204875" lon="17.7610049">
        <ele>46.7612</ele>
        <time>2012-04-12T18:49:17Z</time>
      </trkpt>
      <trkpt lat="59.9210056" lon="17.76204">
        <ele>46.2806</ele>
        <time>2012-04-12T18:49:28Z</time>
      </trkpt>
      <trkpt lat="59.9214395" lon="17.7629669">
        <ele>45.3192</ele>
        <time>2012-04-12T18:49:37Z</time>
      </trkpt>
      <trkpt lat="59.9219327" lon="17.7641262">
        <ele>42.4354</ele>
        <time>2012-04-12T18:49:47Z</time>
      </trkpt>
      <trkpt lat="59.9223887" lon="17.7653267">
        <ele>39.5513</ele>
        <time>2012-04-12T18:49:57Z</time>
      </trkpt>
      <trkpt lat="59.9228997" lon="17.7668648">
        <ele>37.6287</ele>
        <time>2012-04-12T18:50:09Z</time>
      </trkpt>
      <trkpt lat="59.9232783" lon="17.768136">
        <ele>37.6287</ele>
        <time>2012-04-12T18:50:19Z</time>
      </trkpt>
      <trkpt lat="59.9236406" lon="17.7695791">
        <ele>37.1481</ele>
        <time>2012-04-12T18:50:30Z</time>
      </trkpt>
      <trkpt lat="59.9239367" lon="17.7709032">
        <ele>35.2255</ele>
        <time>2012-04-12T18:50:39Z</time>
      </trkpt>
      <trkpt lat="59.9241962" lon="17.7722617">
        <ele>32.3416</ele>
        <time>2012-04-12T18:50:47Z</time>
      </trkpt>
      <trkpt lat="59.9244532" lon="17.7739603">
        <ele>30.4188</ele>
        <time>2012-04-12T18:50:56Z</time>
      </trkpt>
      <trkpt lat="59.9246451" lon="17.7755959">
        <ele>29.9381</ele>
        <time>2012-04-12T18:51:05Z</time>
      </trkpt>
      <trkpt lat="59.9247895" lon="17.7771168">
        <ele>31.3801</ele>
        <time>2012-04-12T18:51:14Z</time>
      </trkpt>
      <trkpt lat="59.9248813" lon="17.7783698">
        <ele>31.8607</ele>
        <time>2012-04-12T18:51:22Z</time>
      </trkpt>
      <trkpt lat="59.9249812" lon="17.7800137">
        <ele>32.3416</ele>
        <time>2012-04-12T18:51:33Z</time>
      </trkpt>
      <trkpt lat="59.9251231" lon="17.7814372">
        <ele>33.3029</ele>
        <time>2012-04-12T18:51:43Z</time>
      </trkpt>
      <trkpt lat="59.9253337" lon="17.7830039">
        <ele>33.3029</ele>
        <time>2012-04-12T18:51:55Z</time>
      </trkpt>
      <trkpt lat="59.9256194" lon="17.7846078">
        <ele>33.3029</ele>
        <time>2012-04-12T18:52:08Z</time>
      </trkpt>
      <trkpt lat="59.9258334" lon="17.7856893">
        <ele>33.7834</ele>
        <time>2012-04-12T18:52:17Z</time>
      </trkpt>
      <trkpt lat="59.9260732" lon="17.7869159">
        <ele>33.7834</ele>
        <time>2012-04-12T18:52:27Z</time>
      </trkpt>
      <trkpt lat="59.9263249" lon="17.7882144">
        <ele>33.3029</ele>
        <time>2012-04-12T18:52:37Z</time>
      </trkpt>
      <trkpt lat="59.9266076" lon="17.7896374">
        <ele>32.3416</ele>
        <time>2012-04-12T18:52:47Z</time>
      </trkpt>
      <trkpt lat="59.9268331" lon="17.7908119">
        <ele>31.8607</ele>
        <time>2012-04-12T18:52:55Z</time>
      </trkpt>
      <trkpt lat="59.9270066" lon="17.791718">
        <ele>31.8607</ele>
        <time>2012-04-12T18:53:02Z</time>
      </trkpt>
      <trkpt lat="59.9271066" lon="17.7922633">
        <ele>32.3416</ele>
        <time>2012-04-12T18:53:07Z</time>
      </trkpt>
      <trkpt lat="59.9272417" lon="17.7929461">
        <ele>32.3416</ele>
        <time>2012-04-12T18:53:14Z</time>
      </trkpt>
      <trkpt lat="59.9274205" lon="17.7937137">
        <ele>33.3029</ele>
        <time>2012-04-12T18:53:23Z</time>
      </trkpt>
      <trkpt lat="59.9276553" lon="17.7945694">
        <ele>33.7834</ele>
        <time>2012-04-12T18:53:34Z</time>
      </trkpt>
      <trkpt lat="59.9278872" lon="17.7953445">
        <ele>33.3029</ele>
        <time>2012-04-12T18:53:45Z</time>
      </trkpt>
      <trkpt lat="59.9281918" lon="17.7962018">
        <ele>34.2642</ele>
        <time>2012-04-12T18:53:57Z</time>
      </trkpt>
      <trkpt lat="59.9285305" lon="17.7970297">
        <ele>35.7061</ele>
        <time>2012-04-12T18:54:08Z</time>
      </trkpt>
      <trkpt lat="59.9289191" lon="17.797881">
        <ele>35.2255</ele>
        <time>2012-04-12T18:54:18Z</time>
      </trkpt>
      <trkpt lat="59.9293018" lon="17.7986498">
        <ele>32.8223</ele>
        <time>2012-04-12T18:54:27Z</time>
      </trkpt>
      <trkpt lat="59.929797" lon="17.7995714">
        <ele>28.4962</ele>
        <time>2012-04-12T18:54:38Z</time>
      </trkpt>
      <trkpt lat="59.9303617" lon="17.8003749">
        <ele>33.7834</ele>
        <time>2012-04-12T18:54:48Z</time>
      </trkpt>
      <trkpt lat="59.9310911" lon="17.8014134">
        <ele>34.7449</ele>
        <time>2012-04-12T18:55:01Z</time>
      </trkpt>
      <trkpt lat="59.9316785" lon="17.8023102">
        <ele>33.7834</ele>
        <time>2012-04-12T18:55:12Z</time>
      </trkpt>
      <trkpt lat="59.93202" lon="17.8027996">
        <ele>32.3416</ele>
        <time>2012-04-12T18:55:18Z</time>
      </trkpt>
      <trkpt lat="59.9321321" lon="17.8029634">
        <ele>31.3801</ele>
        <time>2012-04-12T18:55:20Z</time>
      </trkpt>
      <trkpt lat="59.9327512" lon="17.8037419">
        <ele>28.4962</ele>
        <time>2012-04-12T18:55:30Z</time>
      </trkpt>
      <trkpt lat="59.9331402" lon="17.8043094">
        <ele>26.0929</ele>
        <time>2012-04-12T18:55:36Z</time>
      </trkpt>
      <trkpt lat="59.9336551" lon="17.8051954">
        <ele>24.1703</ele>
        <time>2012-04-12T18:55:44Z</time>
      </trkpt>
      <trkpt lat="59.9341137" lon="17.8061617">
        <ele>23.209</ele>
        <time>2012-04-12T18:55:52Z</time>
      </trkpt>
      <trkpt lat="59.9346259" lon="17.8074286">
        <ele>23.209</ele>
        <time>2012-04-12T18:56:02Z</time>
      </trkpt>
      <trkpt lat="59.9349981" lon="17.8084616">
        <ele>24.651</ele>
        <time>2012-04-12T18:56:11Z</time>
      </trkpt>
      <trkpt lat="59.9354533" lon="17.8097545">
        <ele>25.6123</ele>
        <time>2012-04-12T18:56:23Z</time>
      </trkpt>
      <trkpt lat="59.9358701" lon="17.810948">
        <ele>24.651</ele>
        <time>2012-04-12T18:56:33Z</time>
      </trkpt>
      <trkpt lat="59.9362902" lon="17.8121689">
        <ele>24.651</ele>
        <time>2012-04-12T18:56:43Z</time>
      </trkpt>
      <trkpt lat="59.9366583" lon="17.8132349">
        <ele>25.6123</ele>
        <time>2012-04-12T18:56:53Z</time>
      </trkpt>
      <trkpt lat="59.9369861" lon="17.814182">
        <ele>28.0155</ele>
        <time>2012-04-12T18:57:03Z</time>
      </trkpt>
      <trkpt lat="59.9373379" lon="17.8150017">
        <ele>28.9769</ele>
        <time>2012-04-12T18:57:13Z</time>
      </trkpt>
      <trkpt lat="59.937745" lon="17.8157276">
        <ele>29.4575</ele>
        <time>2012-04-12T18:57:23Z</time>
      </trkpt>
      <trkpt lat="59.9381718" lon="17.8163283">
        <ele>28.4962</ele>
        <time>2012-04-12T18:57:32Z</time>
      </trkpt>
      <trkpt lat="59.9387911" lon="17.8171043">
        <ele>25.6123</ele>
        <time>2012-04-12T18:57:43Z</time>
      </trkpt>
      <trkpt lat="59.9392921" lon="17.8177065">
        <ele>24.1703</ele>
        <time>2012-04-12T18:57:51Z</time>
      </trkpt>
      <trkpt lat="59.9400328" lon="17.8186254">
        <ele>22.2476</ele>
        <time>2012-04-12T18:58:02Z</time>
      </trkpt>
      <trkpt lat="59.9408135" lon="17.8196042">
        <ele>20.325</ele>
        <time>2012-04-12T18:58:13Z</time>
      </trkpt>
      <trkpt lat="59.9416325" lon="17.8206273">
        <ele>18.4023</ele>
        <time>2012-04-12T18:58:24Z</time>
      </trkpt>
      <trkpt lat="59.9421064" lon="17.8212179">
        <ele>19.3638</ele>
        <time>2012-04-12T18:58:31Z</time>
      </trkpt>
      <trkpt lat="59.9424879" lon="17.8216925">
        <ele>20.325</ele>
        <time>2012-04-12T18:58:38Z</time>
      </trkpt>
      <trkpt lat="59.9428893" lon="17.8221901">
        <ele>21.767</ele>
        <time>2012-04-12T18:58:47Z</time>
      </trkpt>
      <trkpt lat="59.9433818" lon="17.8227955">
        <ele>24.1703</ele>
        <time>2012-04-12T18:58:59Z</time>
      </trkpt>
      <trkpt lat="59.9438386" lon="17.8233552">
        <ele>26.5736</ele>
        <time>2012-04-12T18:59:11Z</time>
      </trkpt>
      <trkpt lat="59.9441895" lon="17.8237983">
        <ele>27.0543</ele>
        <time>2012-04-12T18:59:21Z</time>
      </trkpt>
      <trkpt lat="59.9445097" lon="17.8241464">
        <ele>26.5736</ele>
        <time>2012-04-12T18:59:29Z</time>
      </trkpt>
      <trkpt lat="59.9448965" lon="17.8245515">
        <ele>26.0929</ele>
        <time>2012-04-12T18:59:37Z</time>
      </trkpt>
      <trkpt lat="59.9453592" lon="17.825025">
        <ele>26.0929</ele>
        <time>2012-04-12T18:59:45Z</time>
      </trkpt>
      <trkpt lat="59.9459849" lon="17.8256843">
        <ele>25.6123</ele>
        <time>2012-04-12T18:59:55Z</time>
      </trkpt>
      <trkpt lat="59.946802" lon="17.8265302">
        <ele>24.651</ele>
        <time>2012-04-12T19:00:07Z</time>
      </trkpt>
      <trkpt lat="59.9473193" lon="17.8270533">
        <ele>23.6896</ele>
        <time>2012-04-12T19:00:15Z</time>
      </trkpt>
      <trkpt lat="59.9477664" lon="17.8275088">
        <ele>23.6896</ele>
        <time>2012-04-12T19:00:23Z</time>
      </trkpt>
      <trkpt lat="59.9484546" lon="17.8282172">
        <ele>22.7283</ele>
        <time>2012-04-12T19:00:35Z</time>
      </trkpt>
      <trkpt lat="59.9488129" lon="17.8285822">
        <ele>21.767</ele>
        <time>2012-04-12T19:00:41Z</time>
      </trkpt>
      <trkpt lat="59.9490547" lon="17.8287234">
        <ele>22.2476</ele>
        <time>2012-04-12T19:00:45Z</time>
      </trkpt>
      <trkpt lat="59.9493993" lon="17.8290655">
        <ele>22.7283</ele>
        <time>2012-04-12T19:00:52Z</time>
      </trkpt>
      <trkpt lat="59.9497056" lon="17.8295232">
        <ele>23.6896</ele>
        <time>2012-04-12T19:00:59Z</time>
      </trkpt>
      <trkpt lat="59.9498204" lon="17.8297037">
        <ele>23.6896</ele>
        <time>2012-04-12T19:01:02Z</time>
      </trkpt>
      <trkpt lat="59.949969" lon="17.8296849">
        <ele>23.209</ele>
        <time>2012-04-12T19:01:06Z</time>
      </trkpt>
      <trkpt lat="59.9500478" lon="17.8294394">
        <ele>22.2476</ele>
        <time>2012-04-12T19:01:09Z</time>
      </trkpt>
      <trkpt lat="59.9500781" lon="17.8289948">
        <ele>21.767</ele>
        <time>2012-04-12T19:01:13Z</time>
      </trkpt>
      <trkpt lat="59.950058" lon="17.8278366">
        <ele>20.8057</ele>
        <time>2012-04-12T19:01:22Z</time>
      </trkpt>
      <trkpt lat="59.9500757" lon="17.8268519">
        <ele>20.8057</ele>
        <time>2012-04-12T19:01:30Z</time>
      </trkpt>
      <trkpt lat="59.9501571" lon="17.8261333">
        <ele>20.8057</ele>
        <time>2012-04-12T19:01:36Z</time>
      </trkpt>
      <trkpt lat="59.9503773" lon="17.8251617">
        <ele>21.2864</ele>
        <time>2012-04-12T19:01:45Z</time>
      </trkpt>
      <trkpt lat="59.9506288" lon="17.8240285">
        <ele>21.767</ele>
        <time>2012-04-12T19:01:56Z</time>
      </trkpt>
      <trkpt lat="59.9507449" lon="17.8231677">
        <ele>22.7283</ele>
        <time>2012-04-12T19:02:04Z</time>
      </trkpt>
      <trkpt lat="59.9508542" lon="17.8221302">
        <ele>23.6896</ele>
        <time>2012-04-12T19:02:13Z</time>
      </trkpt>
      <trkpt lat="59.9509611" lon="17.8209998">
        <ele>24.651</ele>
        <time>2012-04-12T19:02:23Z</time>
      </trkpt>
      <trkpt lat="59.9510314" lon="17.819649">
        <ele>25.6123</ele>
        <time>2012-04-12T19:02:35Z</time>
      </trkpt>
      <trkpt lat="59.9510683" lon="17.8186704">
        <ele>25.6123</ele>
        <time>2012-04-12T19:02:44Z</time>
      </trkpt>
      <trkpt lat="59.951177" lon="17.8175648">
        <ele>24.651</ele>
        <time>2012-04-12T19:02:54Z</time>
      </trkpt>
      <trkpt lat="59.9512995" lon="17.8163652">
        <ele>24.651</ele>
        <time>2012-04-12T19:03:04Z</time>
      </trkpt>
      <trkpt lat="59.9513727" lon="17.8151198">
        <ele>24.651</ele>
        <time>2012-04-12T19:03:14Z</time>
      </trkpt>
      <trkpt lat="59.9513904" lon="17.8140972">
        <ele>25.6123</ele>
        <time>2012-04-12T19:03:22Z</time>
      </trkpt>
      <trkpt lat="59.9513981" lon="17.8126009">
        <ele>26.0929</ele>
        <time>2012-04-12T19:03:34Z</time>
      </trkpt>
      <trkpt lat="59.9514371" lon="17.811683">
        <ele>27.0543</ele>
        <time>2012-04-12T19:03:42Z</time>
      </trkpt>
      <trkpt lat="59.9516074" lon="17.8105834">
        <ele>27.5349</ele>
        <time>2012-04-12T19:03:52Z</time>
      </trkpt>
      <trkpt lat="59.951841" lon="17.8096375">
        <ele>28.0155</ele>
        <time>2012-04-12T19:04:01Z</time>
      </trkpt>
      <trkpt lat="59.9521249" lon="17.8085699">
        <ele>28.4962</ele>
        <time>2012-04-12T19:04:12Z</time>
      </trkpt>
      <trkpt lat="59.9523895" lon="17.8075493">
        <ele>29.4575</ele>
        <time>2012-04-12T19:04:23Z</time>
      </trkpt>
      <trkpt lat="59.9525588" lon="17.8068948">
        <ele>29.9381</ele>
        <time>2012-04-12T19:04:31Z</time>
      </trkpt>
      <trkpt lat="59.9527056" lon="17.8061903">
        <ele>30.4188</ele>
        <time>2012-04-12T19:04:40Z</time>
      </trkpt>
      <trkpt lat="59.9528112" lon="17.8053608">
        <ele>29.4575</ele>
        <time>2012-04-12T19:04:49Z</time>
      </trkpt>
      <trkpt lat="59.952904" lon="17.8046693">
        <ele>29.4575</ele>
        <time>2012-04-12T19:04:56Z</time>
      </trkpt>
      <trkpt lat="59.9530661" lon="17.8041769">
        <ele>30.4188</ele>
        <time>2012-04-12T19:05:02Z</time>
      </trkpt>
      <trkpt lat="59.953353" lon="17.8035757">
        <ele>32.3416</ele>
        <time>2012-04-12T19:05:11Z</time>
      </trkpt>
      <trkpt lat="59.953554" lon="17.8029697">
        <ele>33.3029</ele>
        <time>2012-04-12T19:05:18Z</time>
      </trkpt>
      <trkpt lat="59.953687" lon="17.8023065">
        <ele>32.8223</ele>
        <time>2012-04-12T19:05:24Z</time>
      </trkpt>
      <trkpt lat="59.9537415" lon="17.8020655">
        <ele>32.3416</ele>
        <time>2012-04-12T19:05:26Z</time>
      </trkpt>
      <trkpt lat="59.9540242" lon="17.80127">
        <ele>29.4575</ele>
        <time>2012-04-12T19:05:33Z</time>
      </trkpt>
      <trkpt lat="59.954069" lon="17.8011523">
        <ele>28.9769</ele>
        <time>2012-04-12T19:05:34Z</time>
      </trkpt>
      <trkpt lat="59.954483" lon="17.8000898">
        <ele>27.0543</ele>
        <time>2012-04-12T19:05:43Z</time>
      </trkpt>
      <trkpt lat="59.9548657" lon="17.7992399">
        <ele>28.4962</ele>
        <time>2012-04-12T19:05:51Z</time>
      </trkpt>
      <trkpt lat="59.9552098" lon="17.7985473">
        <ele>28.9769</ele>
        <time>2012-04-12T19:05:59Z</time>
      </trkpt>
      <trkpt lat="59.9554679" lon="17.7977661">
        <ele>28.0155</ele>
        <time>2012-04-12T19:06:06Z</time>
      </trkpt>
      <trkpt lat="59.955797" lon="17.7964773">
        <ele>27.0543</ele>
        <time>2012-04-12T19:06:16Z</time>
      </trkpt>
      <trkpt lat="59.9560074" lon="17.7953222">
        <ele>27.0543</ele>
        <time>2012-04-12T19:06:25Z</time>
      </trkpt>
      <trkpt lat="59.9562861" lon="17.7941576">
        <ele>27.0543</ele>
        <time>2012-04-12T19:06:35Z</time>
      </trkpt>
      <trkpt lat="59.9564908" lon="17.7931684">
        <ele>28.4962</ele>
        <time>2012-04-12T19:06:44Z</time>
      </trkpt>
      <trkpt lat="59.9566827" lon="17.7920792">
        <ele>28.9769</ele>
        <time>2012-04-12T19:06:54Z</time>
      </trkpt>
      <trkpt lat="59.9567869" lon="17.7913743">
        <ele>28.9769</ele>
        <time>2012-04-12T19:07:00Z</time>
      </trkpt>
      <trkpt lat="59.9567383" lon="17.7907835">
        <ele>29.4575</ele>
        <time>2012-04-12T19:07:05Z</time>
      </trkpt>
      <trkpt lat="59.9566332" lon="17.7902665">
        <ele>28.4962</ele>
        <time>2012-04-12T19:07:09Z</time>
      </trkpt>
      <trkpt lat="59.9566559" lon="17.7896979">
        <ele>27.5349</ele>
        <time>2012-04-12T19:07:13Z</time>
      </trkpt>
      <trkpt lat="59.9568233" lon="17.7893877">
        <ele>27.0543</ele>
        <time>2012-04-12T19:07:16Z</time>
      </trkpt>
      <trkpt lat="59.9572097" lon="17.7887845">
        <ele>27.5349</ele>
        <time>2012-04-12T19:07:23Z</time>
      </trkpt>
      <trkpt lat="59.9574235" lon="17.7881643">
        <ele>27.5349</ele>
        <time>2012-04-12T19:07:29Z</time>
      </trkpt>
      <trkpt lat="59.95765" lon="17.7872562">
        <ele>27.5349</ele>
        <time>2012-04-12T19:07:37Z</time>
      </trkpt>
      <trkpt lat="59.9577465" lon="17.7868191">
        <ele>27.5349</ele>
        <time>2012-04-12T19:07:41Z</time>
      </trkpt>
      <trkpt lat="59.9579846" lon="17.7863873">
        <ele>26.5736</ele>
        <time>2012-04-12T19:07:46Z</time>
      </trkpt>
      <trkpt lat="59.958498" lon="17.7858035">
        <ele>27.0543</ele>
        <time>2012-04-12T19:07:56Z</time>
      </trkpt>
      <trkpt lat="59.9588983" lon="17.7854157">
        <ele>27.5349</ele>
        <time>2012-04-12T19:08:04Z</time>
      </trkpt>
      <trkpt lat="59.9593662" lon="17.7849956">
        <ele>28.4962</ele>
        <time>2012-04-12T19:08:13Z</time>
      </trkpt>
      <trkpt lat="59.9597049" lon="17.7844584">
        <ele>28.9769</ele>
        <time>2012-04-12T19:08:21Z</time>
      </trkpt>
      <trkpt lat="59.959983" lon="17.7838809">
        <ele>28.9769</ele>
        <time>2012-04-12T19:08:28Z</time>
      </trkpt>
      <trkpt lat="59.9602535" lon="17.7831309">
        <ele>28.9769</ele>
        <time>2012-04-12T19:08:36Z</time>
      </trkpt>
      <trkpt lat="59.9605374" lon="17.7822336">
        <ele>28.4962</ele>
        <time>2012-04-12T19:08:45Z</time>
      </trkpt>
      <trkpt lat="59.9607689" lon="17.7817224">
        <ele>28.0155</ele>
        <time>2012-04-12T19:08:50Z</time>
      </trkpt>
      <trkpt lat="59.9612326" lon="17.780881">
        <ele>28.9769</ele>
        <time>2012-04-12T19:08:59Z</time>
      </trkpt>
      <trkpt lat="59.9617177" lon="17.7799267">
        <ele>29.9381</ele>
        <time>2012-04-12T19:09:09Z</time>
      </trkpt>
      <trkpt lat="59.9622215" lon="17.7787889">
        <ele>29.9381</ele>
        <time>2012-04-12T19:09:20Z</time>
      </trkpt>
      <trkpt lat="59.9625888" lon="17.7779497">
        <ele>29.9381</ele>
        <time>2012-04-12T19:09:28Z</time>
      </trkpt>
      <trkpt lat="59.9629784" lon="17.7771099">
        <ele>30.4188</ele>
        <time>2012-04-12T19:09:37Z</time>
      </trkpt>
      <trkpt lat="59.9632049" lon="17.7764219">
        <ele>31.3801</ele>
        <time>2012-04-12T19:09:44Z</time>
      </trkpt>
      <trkpt lat="59.9635267" lon="17.7753875">
        <ele>29.9381</ele>
        <time>2012-04-12T19:09:54Z</time>
      </trkpt>
      <trkpt lat="59.963687" lon="17.774679">
        <ele>29.4575</ele>
        <time>2012-04-12T19:10:00Z</time>
      </trkpt>
      <trkpt lat="59.9638392" lon="17.7737538">
        <ele>28.4962</ele>
        <time>2012-04-12T19:10:08Z</time>
      </trkpt>
      <trkpt lat="59.9639055" lon="17.7732704">
        <ele>28.4962</ele>
        <time>2012-04-12T19:10:12Z</time>
      </trkpt>
      <trkpt lat="59.9638915" lon="17.7725212">
        <ele>28.0155</ele>
        <time>2012-04-12T19:10:18Z</time>
      </trkpt>
      <trkpt lat="59.9637409" lon="17.7717522">
        <ele>28.9769</ele>
        <time>2012-04-12T19:10:25Z</time>
      </trkpt>
      <trkpt lat="59.963528" lon="17.770756">
        <ele>30.4188</ele>
        <time>2012-04-12T19:10:35Z</time>
      </trkpt>
      <trkpt lat="59.9634827" lon="17.7699841">
        <ele>31.3801</ele>
        <time>2012-04-12T19:10:43Z</time>
      </trkpt>
      <trkpt lat="59.9634833" lon="17.7698813">
        <ele>31.3801</ele>
        <time>2012-04-12T19:10:44Z</time>
      </trkpt>
      <trkpt lat="59.9635434" lon="17.7694428">
        <ele>30.4188</ele>
        <time>2012-04-12T19:10:48Z</time>
      </trkpt>
      <trkpt lat="59.9638821" lon="17.7682282">
        <ele>29.9381</ele>
        <time>2012-04-12T19:10:59Z</time>
      </trkpt>
      <trkpt lat="59.9640418" lon="17.7673858">
        <ele>30.4188</ele>
        <time>2012-04-12T19:11:07Z</time>
      </trkpt>
      <trkpt lat="59.9640583" lon="17.7672733">
        <ele>30.4188</ele>
        <time>2012-04-12T19:11:08Z</time>
      </trkpt>
      <trkpt lat="59.9640793" lon="17.7664541">
        <ele>30.8995</ele>
        <time>2012-04-12T19:11:15Z</time>
      </trkpt>
      <trkpt lat="59.9640762" lon="17.7663433">
        <ele>30.8995</ele>
        <time>2012-04-12T19:11:16Z</time>
      </trkpt>
      <trkpt lat="59.9640854" lon="17.7659596">
        <ele>30.8995</ele>
        <time>2012-04-12T19:11:19Z</time>
      </trkpt>
      <trkpt lat="59.9641914" lon="17.7649974">
        <ele>31.3801</ele>
        <time>2012-04-12T19:11:25Z</time>
      </trkpt>
      <trkpt lat="59.9643891" lon="17.764178">
        <ele>29.4575</ele>
        <time>2012-04-12T19:11:30Z</time>
      </trkpt>
      <trkpt lat="59.9646505" lon="17.7631463">
        <ele>26.5736</ele>
        <time>2012-04-12T19:11:37Z</time>
      </trkpt>
      <trkpt lat="59.9649209" lon="17.7623">
        <ele>24.651</ele>
        <time>2012-04-12T19:11:44Z</time>
      </trkpt>
      <trkpt lat="59.9652732" lon="17.7613954">
        <ele>25.6123</ele>
        <time>2012-04-12T19:11:53Z</time>
      </trkpt>
      <trkpt lat="59.9655801" lon="17.7607096">
        <ele>25.6123</ele>
        <time>2012-04-12T19:12:00Z</time>
      </trkpt>
      <trkpt lat="59.9658808" lon="17.7602369">
        <ele>23.6896</ele>
        <time>2012-04-12T19:12:06Z</time>
      </trkpt>
      <trkpt lat="59.9663939" lon="17.7593659">
        <ele>22.7283</ele>
        <time>2012-04-12T19:12:16Z</time>
      </trkpt>
      <trkpt lat="59.9668388" lon="17.7588376">
        <ele>21.767</ele>
        <time>2012-04-12T19:12:24Z</time>
      </trkpt>
      <trkpt lat="59.9673988" lon="17.7583539">
        <ele>22.2476</ele>
        <time>2012-04-12T19:12:34Z</time>
      </trkpt>
      <trkpt lat="59.9678315" lon="17.7578989">
        <ele>22.2476</ele>
        <time>2012-04-12T19:12:43Z</time>
      </trkpt>
      <trkpt lat="59.9681058" lon="17.7575499">
        <ele>25.1317</ele>
        <time>2012-04-12T19:12:50Z</time>
      </trkpt>
      <trkpt lat="59.9683258" lon="17.7572272">
        <ele>27.0543</ele>
        <time>2012-04-12T19:12:57Z</time>
      </trkpt>
      <trkpt lat="59.9685831" lon="17.7568485">
        <ele>28.4962</ele>
        <time>2012-04-12T19:13:04Z</time>
      </trkpt>
      <trkpt lat="59.9688401" lon="17.7564103">
        <ele>28.4962</ele>
        <time>2012-04-12T19:13:11Z</time>
      </trkpt>
      <trkpt lat="59.9691053" lon="17.7558374">
        <ele>26.5736</ele>
        <time>2012-04-12T19:13:18Z</time>
      </trkpt>
      <trkpt lat="59.9694337" lon="17.7551293">
        <ele>25.6123</ele>
        <time>2012-04-12T19:13:26Z</time>
      </trkpt>
      <trkpt lat="59.9698568" lon="17.7542523">
        <ele>26.0929</ele>
        <time>2012-04-12T19:13:36Z</time>
      </trkpt>
      <trkpt lat="59.970181" lon="17.7534733">
        <ele>25.1317</ele>
        <time>2012-04-12T19:13:44Z</time>
      </trkpt>
      <trkpt lat="59.9705112" lon="17.7525682">
        <ele>24.1703</ele>
        <time>2012-04-12T19:13:53Z</time>
      </trkpt>
      <trkpt lat="59.9707845" lon="17.752042">
        <ele>24.1703</ele>
        <time>2012-04-12T19:13:59Z</time>
      </trkpt>
      <trkpt lat="59.9711592" lon="17.7515137">
        <ele>25.6123</ele>
        <time>2012-04-12T19:14:06Z</time>
      </trkpt>
      <trkpt lat="59.9716097" lon="17.750958">
        <ele>28.0155</ele>
        <time>2012-04-12T19:14:15Z</time>
      </trkpt>
      <trkpt lat="59.971916" lon="17.7504076">
        <ele>29.9381</ele>
        <time>2012-04-12T19:14:23Z</time>
      </trkpt>
      <trkpt lat="59.9722148" lon="17.7497182">
        <ele>31.8607</ele>
        <time>2012-04-12T19:14:32Z</time>
      </trkpt>
      <trkpt lat="59.9724133" lon="17.7492715">
        <ele>30.8995</ele>
        <time>2012-04-12T19:14:38Z</time>
      </trkpt>
      <trkpt lat="59.972734" lon="17.748593">
        <ele>31.3801</ele>
        <time>2012-04-12T19:14:47Z</time>
      </trkpt>
      <trkpt lat="59.9730257" lon="17.7480289">
        <ele>31.3801</ele>
        <time>2012-04-12T19:14:54Z</time>
      </trkpt>
      <trkpt lat="59.9733695" lon="17.7476245">
        <ele>31.8607</ele>
        <time>2012-04-12T19:15:01Z</time>
      </trkpt>
      <trkpt lat="59.9737331" lon="17.7472281">
        <ele>33.3029</ele>
        <time>2012-04-12T19:15:09Z</time>
      </trkpt>
      <trkpt lat="59.9740974" lon="17.7467905">
        <ele>34.2642</ele>
        <time>2012-04-12T19:15:17Z</time>
      </trkpt>
      <trkpt lat="59.9745169" lon="17.7462204">
        <ele>35.2255</ele>
        <time>2012-04-12T19:15:26Z</time>
      </trkpt>
      <trkpt lat="59.9748024" lon="17.7456865">
        <ele>34.7449</ele>
        <time>2012-04-12T19:15:33Z</time>
      </trkpt>
      <trkpt lat="59.9750272" lon="17.7450733">
        <ele>33.7834</ele>
        <time>2012-04-12T19:15:39Z</time>
      </trkpt>
      <trkpt lat="59.9752303" lon="17.744355">
        <ele>33.3029</ele>
        <time>2012-04-12T19:15:46Z</time>
      </trkpt>
      <trkpt lat="59.975352" lon="17.7437774">
        <ele>32.3416</ele>
        <time>2012-04-12T19:15:52Z</time>
      </trkpt>
      <trkpt lat="59.9753862" lon="17.7435522">
        <ele>32.8223</ele>
        <time>2012-04-12T19:15:54Z</time>
      </trkpt>
      <trkpt lat="59.9755834" lon="17.7426973">
        <ele>30.8995</ele>
        <time>2012-04-12T19:16:01Z</time>
      </trkpt>
      <trkpt lat="59.9758345" lon="17.7417899">
        <ele>31.8607</ele>
        <time>2012-04-12T19:16:09Z</time>
      </trkpt>
      <trkpt lat="59.9760255" lon="17.7409864">
        <ele>31.3801</ele>
        <time>2012-04-12T19:16:16Z</time>
      </trkpt>
      <trkpt lat="59.9760856" lon="17.7407643">
        <ele>31.3801</ele>
        <time>2012-04-12T19:16:18Z</time>
      </trkpt>
      <trkpt lat="59.976336" lon="17.7400607">
        <ele>31.3801</ele>
        <time>2012-04-12T19:16:25Z</time>
      </trkpt>
      <trkpt lat="59.9764168" lon="17.7398252">
        <ele>31.3801</ele>
        <time>2012-04-12T19:16:27Z</time>
      </trkpt>
      <trkpt lat="59.9767019" lon="17.7394523">
        <ele>29.4575</ele>
        <time>2012-04-12T19:16:32Z</time>
      </trkpt>
      <trkpt lat="59.9768213" lon="17.7394062">
        <ele>29.4575</ele>
        <time>2012-04-12T19:16:34Z</time>
      </trkpt>
      <trkpt lat="59.9770791" lon="17.7393391">
        <ele>27.0543</ele>
        <time>2012-04-12T19:16:39Z</time>
      </trkpt>
      <trkpt lat="59.9773611" lon="17.7391816">
        <ele>24.651</ele>
        <time>2012-04-12T19:16:45Z</time>
      </trkpt>
      <trkpt lat="59.9774028" lon="17.739158">
        <ele>25.6123</ele>
        <time>2012-04-12T19:16:46Z</time>
      </trkpt>
      <trkpt lat="59.9776168" lon="17.7391057">
        <ele>28.4962</ele>
        <time>2012-04-12T19:16:52Z</time>
      </trkpt>
      <trkpt lat="59.9778854" lon="17.739193">
        <ele>29.4575</ele>
        <time>2012-04-12T19:17:00Z</time>
      </trkpt>
      <trkpt lat="59.9780517" lon="17.7392736">
        <ele>28.9769</ele>
        <time>2012-04-12T19:17:05Z</time>
      </trkpt>
      <trkpt lat="59.9783262" lon="17.7393295">
        <ele>29.9381</ele>
        <time>2012-04-12T19:17:11Z</time>
      </trkpt>
      <trkpt lat="59.9786456" lon="17.7393682">
        <ele>30.4188</ele>
        <time>2012-04-12T19:17:18Z</time>
      </trkpt>
      <trkpt lat="59.9787295" lon="17.7393673">
        <ele>29.4575</ele>
        <time>2012-04-12T19:17:20Z</time>
      </trkpt>
    </trkseg>
  </trk>
</gpx>